<?xml version="1.0" encoding="UTF-8" standalone="no" ?>
<gpx xmlns="http://www.topografix.com/GPX/1/1" xmlns:xsi="http://www.w3.org/2001/XMLSchema-instance" xsi:schemaLocation="http://www.topografix.com/GPX/1/1 http://www.topografix.com/GPX/1/1/gpx.xsd" version="1.1" creator="VisuGPX - https://www.visugpx.com">
  <metadata>
    <name>Pont de Masclac - Ravin des Arcs</name>
    <desc><![CDATA[2016-01 - Pont de Masclac - Grands Bois - Pont St Etienne d'Issensac - Ravin des Arcs

[b]album[/b] : [url]https://goo.gl/photos/hAoYkGc9VhBnnVWF6[/url]
[img]https://2.bp.blogspot.com/-R2AgEe55qY4/WNE5mQFvQmI/AAAAAAAAQ64/KQ1ts2qOWgglnh_6i0_QpbOyeMoKtFPDQCLcB/s1600/2016-01_pont_ravin-arcs.JPG[/img]
[b]Idées de randonnées dans la même région[/b]
Parcours : [url]https://www.visugpx.com/membres/24856/causses/garrigues-montpellier/[/url]
Photos : [url]https://jcvertygo.blogspot.com/p/nord-montpellier.html[/url]]]></desc>
  </metadata>
  <trk>
    <name><![CDATA[Pont de Masclac - Ravin des Arcs_1]]></name>
    <trkseg>
      <trkpt lat="43.812" lon="3.74201">
        <ele>169.6</ele>
        <time>2016-01-23T10:59:48Z</time>
      </trkpt>
      <trkpt lat="43.81193" lon="3.742">
        <ele>169.6</ele>
        <time>2016-01-23T10:59:53Z</time>
      </trkpt>
      <trkpt lat="43.81212" lon="3.74192">
        <ele>168.95290514356</ele>
        <time>2016-01-23T11:01:03Z</time>
      </trkpt>
      <trkpt lat="43.81214" lon="3.7419">
        <ele>168.95290514356</ele>
        <time>2016-01-23T11:01:08Z</time>
      </trkpt>
      <trkpt lat="43.81219" lon="3.74191">
        <ele>168.95290514356</ele>
        <time>2016-01-23T11:01:23Z</time>
      </trkpt>
      <trkpt lat="43.81223" lon="3.74191">
        <ele>169.69569843395</ele>
        <time>2016-01-23T11:01:28Z</time>
      </trkpt>
      <trkpt lat="43.81235" lon="3.74185">
        <ele>170.3462470659</ele>
        <time>2016-01-23T11:01:38Z</time>
      </trkpt>
      <trkpt lat="43.81238" lon="3.74184">
        <ele>170.3462470659</ele>
        <time>2016-01-23T11:01:43Z</time>
      </trkpt>
      <trkpt lat="43.81244" lon="3.74183">
        <ele>170.3462470659</ele>
        <time>2016-01-23T11:02:00Z</time>
      </trkpt>
      <trkpt lat="43.81251" lon="3.74185">
        <ele>169.91491476729</ele>
        <time>2016-01-23T11:02:13Z</time>
      </trkpt>
      <trkpt lat="43.81299" lon="3.74149">
        <ele>170.33335087214</ele>
        <time>2016-01-23T11:03:18Z</time>
      </trkpt>
      <trkpt lat="43.81301" lon="3.74146">
        <ele>170.33335087214</ele>
        <time>2016-01-23T11:03:23Z</time>
      </trkpt>
      <trkpt lat="43.81309" lon="3.7414">
        <ele>171.22923409171</ele>
        <time>2016-01-23T11:03:51Z</time>
      </trkpt>
      <trkpt lat="43.81337" lon="3.74123">
        <ele>172.57080405038</ele>
        <time>2016-01-23T11:04:00Z</time>
      </trkpt>
      <trkpt lat="43.81338" lon="3.74122">
        <ele>172.57080405038</ele>
        <time>2016-01-23T11:04:00Z</time>
      </trkpt>
      <trkpt lat="43.81384" lon="3.74104">
        <ele>174.684654895</ele>
        <time>2016-01-23T11:05:25Z</time>
      </trkpt>
      <trkpt lat="43.81392" lon="3.74101">
        <ele>174.684654895</ele>
        <time>2016-01-23T11:05:25Z</time>
      </trkpt>
      <trkpt lat="43.81398" lon="3.74095">
        <ele>176.29501923236</ele>
        <time>2016-01-23T11:05:33Z</time>
      </trkpt>
      <trkpt lat="43.81401" lon="3.74093">
        <ele>176.29501923236</ele>
        <time>2016-01-23T11:05:42Z</time>
      </trkpt>
      <trkpt lat="43.81496" lon="3.74083">
        <ele>177.413142651</ele>
        <time>2016-01-23T11:07:14Z</time>
      </trkpt>
      <trkpt lat="43.81503" lon="3.74086">
        <ele>177.413142651</ele>
        <time>2016-01-23T11:07:14Z</time>
      </trkpt>
      <trkpt lat="43.81526" lon="3.74085">
        <ele>178.01637449678</ele>
        <time>2016-01-23T11:07:34Z</time>
      </trkpt>
      <trkpt lat="43.81549" lon="3.74079">
        <ele>178.11646651048</ele>
        <time>2016-01-23T11:07:50Z</time>
      </trkpt>
      <trkpt lat="43.8155" lon="3.74079">
        <ele>178.11646651048</ele>
        <time>2016-01-23T11:07:51Z</time>
      </trkpt>
      <trkpt lat="43.81671" lon="3.74065">
        <ele>177.09658314795</ele>
        <time>2016-01-23T11:09:33Z</time>
      </trkpt>
      <trkpt lat="43.8172" lon="3.74048">
        <ele>175.59039070435</ele>
        <time>2016-01-23T11:10:18Z</time>
      </trkpt>
      <trkpt lat="43.81798" lon="3.73971">
        <ele>174.16793494096</ele>
        <time>2016-01-23T11:12:15Z</time>
      </trkpt>
      <trkpt lat="43.8185" lon="3.73894">
        <ele>173.29114149015</ele>
        <time>2016-01-23T11:13:47Z</time>
      </trkpt>
      <trkpt lat="43.81959" lon="3.73857">
        <ele>176.38192170468</ele>
        <time>2016-01-23T11:16:23Z</time>
      </trkpt>
      <trkpt lat="43.81973" lon="3.73852">
        <ele>179.62403492798</ele>
        <time>2016-01-23T11:17:04Z</time>
      </trkpt>
      <trkpt lat="43.81981" lon="3.73847">
        <ele>182.473947437</ele>
        <time>2016-01-23T11:17:48Z</time>
      </trkpt>
      <trkpt lat="43.81985" lon="3.7385">
        <ele>182.473947437</ele>
        <time>2016-01-23T11:17:53Z</time>
      </trkpt>
      <trkpt lat="43.8204" lon="3.73837">
        <ele>185.71806780804</ele>
        <time>2016-01-23T11:19:12Z</time>
      </trkpt>
      <trkpt lat="43.82055" lon="3.73817">
        <ele>189.02291642424</ele>
        <time>2016-01-23T11:19:42Z</time>
      </trkpt>
      <trkpt lat="43.82128" lon="3.73672">
        <ele>195.61413185859</ele>
        <time>2016-01-23T11:21:55Z</time>
      </trkpt>
      <trkpt lat="43.82179" lon="3.73574">
        <ele>203.55991852367</ele>
        <time>2016-01-23T11:23:40Z</time>
      </trkpt>
      <trkpt lat="43.82185" lon="3.73551">
        <ele>211.04139372938</ele>
        <time>2016-01-23T11:23:53Z</time>
      </trkpt>
      <trkpt lat="43.82193" lon="3.73491">
        <ele>218.18790098713</ele>
        <time>2016-01-23T11:24:57Z</time>
      </trkpt>
      <trkpt lat="43.82209" lon="3.73476">
        <ele>224.68381583887</ele>
        <time>2016-01-23T11:25:23Z</time>
      </trkpt>
      <trkpt lat="43.82212" lon="3.73465">
        <ele>224.68381583887</ele>
        <time>2016-01-23T11:25:23Z</time>
      </trkpt>
      <trkpt lat="43.82229" lon="3.73425">
        <ele>230.79103492749</ele>
        <time>2016-01-23T11:25:53Z</time>
      </trkpt>
      <trkpt lat="43.82398" lon="3.73186">
        <ele>237.73041788419</ele>
        <time>2016-01-23T11:29:53Z</time>
      </trkpt>
      <trkpt lat="43.82435" lon="3.7314">
        <ele>243.96542618091</ele>
        <time>2016-01-23T11:30:38Z</time>
      </trkpt>
      <trkpt lat="43.82485" lon="3.73094">
        <ele>250.3215775316</ele>
        <time>2016-01-23T11:31:42Z</time>
      </trkpt>
      <trkpt lat="43.8251" lon="3.73077">
        <ele>256.0629428171</ele>
        <time>2016-01-23T11:32:03Z</time>
      </trkpt>
      <trkpt lat="43.82568" lon="3.73015">
        <ele>261.5936723434</ele>
        <time>2016-01-23T11:33:16Z</time>
      </trkpt>
      <trkpt lat="43.82576" lon="3.73012">
        <ele>261.5936723434</ele>
        <time>2016-01-23T11:33:16Z</time>
      </trkpt>
      <trkpt lat="43.82602" lon="3.72998">
        <ele>266.59096868716</ele>
        <time>2016-01-23T11:33:48Z</time>
      </trkpt>
      <trkpt lat="43.82603" lon="3.72998">
        <ele>266.59096868716</ele>
        <time>2016-01-23T11:33:57Z</time>
      </trkpt>
      <trkpt lat="43.82611" lon="3.7299">
        <ele>270.02917924388</ele>
        <time>2016-01-23T11:35:13Z</time>
      </trkpt>
      <trkpt lat="43.82611" lon="3.7299">
        <ele>270.02917924388</ele>
        <time>2016-01-23T11:35:14Z</time>
      </trkpt>
      <trkpt lat="43.8264" lon="3.72995">
        <ele>273.02401256755</ele>
        <time>2016-01-23T11:36:32Z</time>
      </trkpt>
      <trkpt lat="43.82711" lon="3.7303">
        <ele>275.08123473394</ele>
        <time>2016-01-23T11:37:44Z</time>
      </trkpt>
      <trkpt lat="43.82718" lon="3.73037">
        <ele>275.08123473394</ele>
        <time>2016-01-23T11:37:44Z</time>
      </trkpt>
      <trkpt lat="43.82732" lon="3.73048">
        <ele>276.60858865164</ele>
        <time>2016-01-23T11:38:02Z</time>
      </trkpt>
      <trkpt lat="43.82747" lon="3.73057">
        <ele>277.66735936313</ele>
        <time>2016-01-23T11:38:18Z</time>
      </trkpt>
      <trkpt lat="43.82754" lon="3.7306">
        <ele>277.66735936313</ele>
        <time>2016-01-23T11:38:23Z</time>
      </trkpt>
      <trkpt lat="43.82805" lon="3.73081">
        <ele>278.27510684142</ele>
        <time>2016-01-23T11:39:14Z</time>
      </trkpt>
      <trkpt lat="43.82807" lon="3.73081">
        <ele>278.27510684142</ele>
        <time>2016-01-23T11:39:14Z</time>
      </trkpt>
      <trkpt lat="43.82808" lon="3.73081">
        <ele>278.27510684142</ele>
        <time>2016-01-23T11:39:19Z</time>
      </trkpt>
      <trkpt lat="43.82818" lon="3.73081">
        <ele>278.66678141751</ele>
        <time>2016-01-23T11:39:23Z</time>
      </trkpt>
      <trkpt lat="43.82824" lon="3.7308">
        <ele>278.66678141751</ele>
        <time>2016-01-23T11:39:28Z</time>
      </trkpt>
      <trkpt lat="43.82829" lon="3.7308">
        <ele>279.1401830741</ele>
        <time>2016-01-23T11:39:33Z</time>
      </trkpt>
      <trkpt lat="43.82833" lon="3.73081">
        <ele>279.1401830741</ele>
        <time>2016-01-23T11:39:38Z</time>
      </trkpt>
      <trkpt lat="43.82837" lon="3.73084">
        <ele>279.1401830741</ele>
        <time>2016-01-23T11:39:43Z</time>
      </trkpt>
      <trkpt lat="43.82839" lon="3.73087">
        <ele>279.76042027905</ele>
        <time>2016-01-23T11:39:48Z</time>
      </trkpt>
      <trkpt lat="43.82841" lon="3.7309">
        <ele>279.76042027905</ele>
        <time>2016-01-23T11:39:53Z</time>
      </trkpt>
      <trkpt lat="43.82844" lon="3.73092">
        <ele>279.76042027905</ele>
        <time>2016-01-23T11:39:58Z</time>
      </trkpt>
      <trkpt lat="43.82847" lon="3.73092">
        <ele>280.32525618751</ele>
        <time>2016-01-23T11:40:03Z</time>
      </trkpt>
      <trkpt lat="43.82872" lon="3.73112">
        <ele>280.82063057948</ele>
        <time>2016-01-23T11:40:33Z</time>
      </trkpt>
      <trkpt lat="43.82878" lon="3.73116">
        <ele>280.82063057948</ele>
        <time>2016-01-23T11:40:38Z</time>
      </trkpt>
      <trkpt lat="43.82885" lon="3.73113">
        <ele>281.21883597887</ele>
        <time>2016-01-23T11:40:58Z</time>
      </trkpt>
      <trkpt lat="43.8289" lon="3.73108">
        <ele>281.21883597887</ele>
        <time>2016-01-23T11:41:03Z</time>
      </trkpt>
      <trkpt lat="43.82894" lon="3.73104">
        <ele>281.52391315458</ele>
        <time>2016-01-23T11:41:08Z</time>
      </trkpt>
      <trkpt lat="43.82898" lon="3.731">
        <ele>281.52391315458</ele>
        <time>2016-01-23T11:41:13Z</time>
      </trkpt>
      <trkpt lat="43.82916" lon="3.73086">
        <ele>281.69497635182</ele>
        <time>2016-01-23T11:41:43Z</time>
      </trkpt>
      <trkpt lat="43.82918" lon="3.73085">
        <ele>281.69497635182</ele>
        <time>2016-01-23T11:41:43Z</time>
      </trkpt>
      <trkpt lat="43.82933" lon="3.73077">
        <ele>281.75400970398</ele>
        <time>2016-01-23T11:42:10Z</time>
      </trkpt>
      <trkpt lat="43.82943" lon="3.73071">
        <ele>281.78180899157</ele>
        <time>2016-01-23T11:42:18Z</time>
      </trkpt>
      <trkpt lat="43.82944" lon="3.7307">
        <ele>281.78180899157</ele>
        <time>2016-01-23T11:42:23Z</time>
      </trkpt>
      <trkpt lat="43.82946" lon="3.73065">
        <ele>281.78180899157</ele>
        <time>2016-01-23T11:42:28Z</time>
      </trkpt>
      <trkpt lat="43.82946" lon="3.73067">
        <ele>281.78180899157</ele>
        <time>2016-01-23T11:42:43Z</time>
      </trkpt>
      <trkpt lat="43.82946" lon="3.73074">
        <ele>281.95869181652</ele>
        <time>2016-01-23T11:42:48Z</time>
      </trkpt>
      <trkpt lat="43.82949" lon="3.7308">
        <ele>281.95869181652</ele>
        <time>2016-01-23T11:42:53Z</time>
      </trkpt>
      <trkpt lat="43.8295" lon="3.73079">
        <ele>281.95869181652</ele>
        <time>2016-01-23T11:42:58Z</time>
      </trkpt>
      <trkpt lat="43.82946" lon="3.73074">
        <ele>281.89241550047</ele>
        <time>2016-01-23T11:43:03Z</time>
      </trkpt>
      <trkpt lat="43.82947" lon="3.73065">
        <ele>281.89241550047</ele>
        <time>2016-01-23T11:43:08Z</time>
      </trkpt>
      <trkpt lat="43.82948" lon="3.73058">
        <ele>281.61234788112</ele>
        <time>2016-01-23T11:43:13Z</time>
      </trkpt>
      <trkpt lat="43.8295" lon="3.73052">
        <ele>281.61234788112</ele>
        <time>2016-01-23T11:43:18Z</time>
      </trkpt>
      <trkpt lat="43.82952" lon="3.73052">
        <ele>281.61234788112</ele>
        <time>2016-01-23T11:43:23Z</time>
      </trkpt>
      <trkpt lat="43.82953" lon="3.73053">
        <ele>281.61234788112</ele>
        <time>2016-01-23T11:43:28Z</time>
      </trkpt>
      <trkpt lat="43.82951" lon="3.73055">
        <ele>281.04046265632</ele>
        <time>2016-01-23T11:43:33Z</time>
      </trkpt>
      <trkpt lat="43.82953" lon="3.73053">
        <ele>281.04046265632</ele>
        <time>2016-01-23T11:43:38Z</time>
      </trkpt>
      <trkpt lat="43.82953" lon="3.73047">
        <ele>281.04046265632</ele>
        <time>2016-01-23T11:43:43Z</time>
      </trkpt>
      <trkpt lat="43.82955" lon="3.73041">
        <ele>280.39219715318</ele>
        <time>2016-01-23T11:43:48Z</time>
      </trkpt>
      <trkpt lat="43.82958" lon="3.73036">
        <ele>280.39219715318</ele>
        <time>2016-01-23T11:43:53Z</time>
      </trkpt>
      <trkpt lat="43.8296" lon="3.73029">
        <ele>279.6245834131</ele>
        <time>2016-01-23T11:43:58Z</time>
      </trkpt>
      <trkpt lat="43.82961" lon="3.73022">
        <ele>279.6245834131</ele>
        <time>2016-01-23T11:44:03Z</time>
      </trkpt>
      <trkpt lat="43.82961" lon="3.73015">
        <ele>278.75815272911</ele>
        <time>2016-01-23T11:44:08Z</time>
      </trkpt>
      <trkpt lat="43.82959" lon="3.73005">
        <ele>278.75815272911</ele>
        <time>2016-01-23T11:44:13Z</time>
      </trkpt>
      <trkpt lat="43.8296" lon="3.72995">
        <ele>277.97684465985</ele>
        <time>2016-01-23T11:44:18Z</time>
      </trkpt>
      <trkpt lat="43.82961" lon="3.72989">
        <ele>277.97684465985</ele>
        <time>2016-01-23T11:44:23Z</time>
      </trkpt>
      <trkpt lat="43.82963" lon="3.72984">
        <ele>277.97684465985</ele>
        <time>2016-01-23T11:44:28Z</time>
      </trkpt>
      <trkpt lat="43.82964" lon="3.7298">
        <ele>277.13358651294</ele>
        <time>2016-01-23T11:44:33Z</time>
      </trkpt>
      <trkpt lat="43.82963" lon="3.72977">
        <ele>277.13358651294</ele>
        <time>2016-01-23T11:44:38Z</time>
      </trkpt>
      <trkpt lat="43.82962" lon="3.72975">
        <ele>277.13358651294</ele>
        <time>2016-01-23T11:44:43Z</time>
      </trkpt>
      <trkpt lat="43.82961" lon="3.7298">
        <ele>277.13358651294</ele>
        <time>2016-01-23T11:44:48Z</time>
      </trkpt>
      <trkpt lat="43.82962" lon="3.72983">
        <ele>276.27278702572</ele>
        <time>2016-01-23T11:44:53Z</time>
      </trkpt>
      <trkpt lat="43.82962" lon="3.72994">
        <ele>276.27278702572</ele>
        <time>2016-01-23T11:44:58Z</time>
      </trkpt>
      <trkpt lat="43.82958" lon="3.73003">
        <ele>275.37500599792</ele>
        <time>2016-01-23T11:45:05Z</time>
      </trkpt>
      <trkpt lat="43.82953" lon="3.73015">
        <ele>274.4519142056</ele>
        <time>2016-01-23T11:45:13Z</time>
      </trkpt>
      <trkpt lat="43.82951" lon="3.7302">
        <ele>274.4519142056</ele>
        <time>2016-01-23T11:45:19Z</time>
      </trkpt>
      <trkpt lat="43.82941" lon="3.73062">
        <ele>273.6178875879</ele>
        <time>2016-01-23T11:45:47Z</time>
      </trkpt>
      <trkpt lat="43.82941" lon="3.73063">
        <ele>273.6178875879</ele>
        <time>2016-01-23T11:45:55Z</time>
      </trkpt>
      <trkpt lat="43.82982" lon="3.73108">
        <ele>272.87332465174</ele>
        <time>2016-01-23T11:46:38Z</time>
      </trkpt>
      <trkpt lat="43.82987" lon="3.73111">
        <ele>272.87332465174</ele>
        <time>2016-01-23T11:46:43Z</time>
      </trkpt>
      <trkpt lat="43.82993" lon="3.73112">
        <ele>272.18847035009</ele>
        <time>2016-01-23T11:46:48Z</time>
      </trkpt>
      <trkpt lat="43.83001" lon="3.73112">
        <ele>272.18847035009</ele>
        <time>2016-01-23T11:46:55Z</time>
      </trkpt>
      <trkpt lat="43.83004" lon="3.73112">
        <ele>271.53563514993</ele>
        <time>2016-01-23T11:46:58Z</time>
      </trkpt>
      <trkpt lat="43.83011" lon="3.73111">
        <ele>271.53563514993</ele>
        <time>2016-01-23T11:47:05Z</time>
      </trkpt>
      <trkpt lat="43.83012" lon="3.73111">
        <ele>271.53563514993</ele>
        <time>2016-01-23T11:47:14Z</time>
      </trkpt>
      <trkpt lat="43.83023" lon="3.73102">
        <ele>271.03623083421</ele>
        <time>2016-01-23T11:47:18Z</time>
      </trkpt>
      <trkpt lat="43.83027" lon="3.73102">
        <ele>271.03623083421</ele>
        <time>2016-01-23T11:47:27Z</time>
      </trkpt>
      <trkpt lat="43.83052" lon="3.73095">
        <ele>270.90372717004</ele>
        <time>2016-01-23T11:48:00Z</time>
      </trkpt>
      <trkpt lat="43.83058" lon="3.73093">
        <ele>270.90372717004</ele>
        <time>2016-01-23T11:48:26Z</time>
      </trkpt>
      <trkpt lat="43.83087" lon="3.73058">
        <ele>271.87483950737</ele>
        <time>2016-01-23T11:48:53Z</time>
      </trkpt>
      <trkpt lat="43.83092" lon="3.73053">
        <ele>271.87483950737</ele>
        <time>2016-01-23T11:49:00Z</time>
      </trkpt>
      <trkpt lat="43.83097" lon="3.73035">
        <ele>273.17600786449</ele>
        <time>2016-01-23T11:49:13Z</time>
      </trkpt>
      <trkpt lat="43.83098" lon="3.73026">
        <ele>273.17600786449</ele>
        <time>2016-01-23T11:49:34Z</time>
      </trkpt>
      <trkpt lat="43.83099" lon="3.73019">
        <ele>274.56272934385</ele>
        <time>2016-01-23T11:49:44Z</time>
      </trkpt>
      <trkpt lat="43.83133" lon="3.72986">
        <ele>276.87317401868</ele>
        <time>2016-01-23T11:50:24Z</time>
      </trkpt>
      <trkpt lat="43.83156" lon="3.72991">
        <ele>279.61090050796</ele>
        <time>2016-01-23T11:50:48Z</time>
      </trkpt>
      <trkpt lat="43.83159" lon="3.72993">
        <ele>279.61090050796</ele>
        <time>2016-01-23T11:51:40Z</time>
      </trkpt>
      <trkpt lat="43.83174" lon="3.73015">
        <ele>283.14566010268</ele>
        <time>2016-01-23T11:51:48Z</time>
      </trkpt>
      <trkpt lat="43.83177" lon="3.73016">
        <ele>283.14566010268</ele>
        <time>2016-01-23T11:51:53Z</time>
      </trkpt>
      <trkpt lat="43.83181" lon="3.73024">
        <ele>286.53979224052</ele>
        <time>2016-01-23T11:52:00Z</time>
      </trkpt>
      <trkpt lat="43.83187" lon="3.73037">
        <ele>289.71155860554</ele>
        <time>2016-01-23T11:52:12Z</time>
      </trkpt>
      <trkpt lat="43.83193" lon="3.73053">
        <ele>292.62928401932</ele>
        <time>2016-01-23T11:52:37Z</time>
      </trkpt>
      <trkpt lat="43.83198" lon="3.73065">
        <ele>295.46658579067</ele>
        <time>2016-01-23T11:52:52Z</time>
      </trkpt>
      <trkpt lat="43.83203" lon="3.73069">
        <ele>295.46658579067</ele>
        <time>2016-01-23T11:52:53Z</time>
      </trkpt>
      <trkpt lat="43.83223" lon="3.73086">
        <ele>298.31154763938</ele>
        <time>2016-01-23T11:53:12Z</time>
      </trkpt>
      <trkpt lat="43.83225" lon="3.73087">
        <ele>298.31154763938</ele>
        <time>2016-01-23T11:53:13Z</time>
      </trkpt>
      <trkpt lat="43.83227" lon="3.73091">
        <ele>298.31154763938</ele>
        <time>2016-01-23T11:53:18Z</time>
      </trkpt>
      <trkpt lat="43.83227" lon="3.73096">
        <ele>301.05765378331</ele>
        <time>2016-01-23T11:53:23Z</time>
      </trkpt>
      <trkpt lat="43.83227" lon="3.73098">
        <ele>301.05765378331</ele>
        <time>2016-01-23T11:53:28Z</time>
      </trkpt>
      <trkpt lat="43.83233" lon="3.73101">
        <ele>301.05765378331</ele>
        <time>2016-01-23T11:53:42Z</time>
      </trkpt>
      <trkpt lat="43.83235" lon="3.73102">
        <ele>303.60659315332</ele>
        <time>2016-01-23T11:53:44Z</time>
      </trkpt>
      <trkpt lat="43.83241" lon="3.73112">
        <ele>306.11317056077</ele>
        <time>2016-01-23T11:53:58Z</time>
      </trkpt>
      <trkpt lat="43.83251" lon="3.73113">
        <ele>308.35999706969</ele>
        <time>2016-01-23T11:54:17Z</time>
      </trkpt>
      <trkpt lat="43.8326" lon="3.73113">
        <ele>308.35999706969</ele>
        <time>2016-01-23T11:54:31Z</time>
      </trkpt>
      <trkpt lat="43.83289" lon="3.73125">
        <ele>311.14168461186</ele>
        <time>2016-01-23T11:55:27Z</time>
      </trkpt>
      <trkpt lat="43.83293" lon="3.73129">
        <ele>311.14168461186</ele>
        <time>2016-01-23T11:55:29Z</time>
      </trkpt>
      <trkpt lat="43.83316" lon="3.73131">
        <ele>314.16857361323</ele>
        <time>2016-01-23T11:55:58Z</time>
      </trkpt>
      <trkpt lat="43.83317" lon="3.7313">
        <ele>314.16857361323</ele>
        <time>2016-01-23T11:56:03Z</time>
      </trkpt>
      <trkpt lat="43.83325" lon="3.731">
        <ele>317.24394701015</ele>
        <time>2016-01-23T11:56:38Z</time>
      </trkpt>
      <trkpt lat="43.83326" lon="3.73097">
        <ele>317.24394701015</ele>
        <time>2016-01-23T11:56:51Z</time>
      </trkpt>
      <trkpt lat="43.83334" lon="3.73085">
        <ele>320.25760938192</ele>
        <time>2016-01-23T11:57:16Z</time>
      </trkpt>
      <trkpt lat="43.83347" lon="3.73046">
        <ele>323.29511905831</ele>
        <time>2016-01-23T11:57:48Z</time>
      </trkpt>
      <trkpt lat="43.83356" lon="3.7304">
        <ele>326.1617930073</ele>
        <time>2016-01-23T11:58:16Z</time>
      </trkpt>
      <trkpt lat="43.83364" lon="3.73037">
        <ele>326.1617930073</ele>
        <time>2016-01-23T11:58:23Z</time>
      </trkpt>
      <trkpt lat="43.83376" lon="3.73037">
        <ele>329.87449125109</ele>
        <time>2016-01-23T11:59:14Z</time>
      </trkpt>
      <trkpt lat="43.83413" lon="3.72981">
        <ele>334.27736812224</ele>
        <time>2016-01-23T12:00:46Z</time>
      </trkpt>
      <trkpt lat="43.83413" lon="3.7298">
        <ele>334.27736812224</ele>
        <time>2016-01-23T12:00:48Z</time>
      </trkpt>
      <trkpt lat="43.8342" lon="3.72983">
        <ele>334.27736812224</ele>
        <time>2016-01-23T12:01:04Z</time>
      </trkpt>
      <trkpt lat="43.83423" lon="3.7298">
        <ele>339.10884972018</ele>
        <time>2016-01-23T12:01:05Z</time>
      </trkpt>
      <trkpt lat="43.83451" lon="3.72975">
        <ele>344.63017678914</ele>
        <time>2016-01-23T12:01:58Z</time>
      </trkpt>
      <trkpt lat="43.83456" lon="3.72976">
        <ele>344.63017678914</ele>
        <time>2016-01-23T12:02:11Z</time>
      </trkpt>
      <trkpt lat="43.83477" lon="3.72951">
        <ele>350.17311568555</ele>
        <time>2016-01-23T12:03:00Z</time>
      </trkpt>
      <trkpt lat="43.83503" lon="3.72962">
        <ele>356.47418786393</ele>
        <time>2016-01-23T12:04:03Z</time>
      </trkpt>
      <trkpt lat="43.83503" lon="3.72962">
        <ele>356.47418786393</ele>
        <time>2016-01-23T12:04:10Z</time>
      </trkpt>
      <trkpt lat="43.83513" lon="3.72957">
        <ele>362.58420655727</ele>
        <time>2016-01-23T12:05:06Z</time>
      </trkpt>
      <trkpt lat="43.83513" lon="3.72955">
        <ele>362.58420655727</ele>
        <time>2016-01-23T12:05:08Z</time>
      </trkpt>
      <trkpt lat="43.83514" lon="3.72954">
        <ele>362.58420655727</ele>
        <time>2016-01-23T12:05:16Z</time>
      </trkpt>
      <trkpt lat="43.83514" lon="3.72956">
        <ele>362.58420655727</ele>
        <time>2016-01-23T12:06:58Z</time>
      </trkpt>
      <trkpt lat="43.83526" lon="3.72954">
        <ele>368.34552919261</ele>
        <time>2016-01-23T12:07:47Z</time>
      </trkpt>
      <trkpt lat="43.83528" lon="3.72942">
        <ele>373.55562646124</ele>
        <time>2016-01-23T12:08:04Z</time>
      </trkpt>
      <trkpt lat="43.83532" lon="3.72934">
        <ele>373.55562646124</ele>
        <time>2016-01-23T12:08:31Z</time>
      </trkpt>
      <trkpt lat="43.83529" lon="3.72935">
        <ele>378.60563803058</ele>
        <time>2016-01-23T12:09:23Z</time>
      </trkpt>
      <trkpt lat="43.83528" lon="3.72939">
        <ele>378.60563803058</ele>
        <time>2016-01-23T12:09:28Z</time>
      </trkpt>
      <trkpt lat="43.83531" lon="3.72946">
        <ele>383.10865429743</ele>
        <time>2016-01-23T12:09:46Z</time>
      </trkpt>
      <trkpt lat="43.83534" lon="3.72949">
        <ele>383.10865429743</ele>
        <time>2016-01-23T12:09:47Z</time>
      </trkpt>
      <trkpt lat="43.83564" lon="3.72939">
        <ele>387.94853555978</ele>
        <time>2016-01-23T12:13:28Z</time>
      </trkpt>
      <trkpt lat="43.83564" lon="3.72952">
        <ele>387.94853555978</ele>
        <time>2016-01-23T12:13:53Z</time>
      </trkpt>
      <trkpt lat="43.83562" lon="3.72961">
        <ele>392.38567872825</ele>
        <time>2016-01-23T12:13:58Z</time>
      </trkpt>
      <trkpt lat="43.83586" lon="3.72988">
        <ele>396.77484106119</ele>
        <time>2016-01-23T12:14:56Z</time>
      </trkpt>
      <trkpt lat="43.83608" lon="3.72998">
        <ele>400.68064198873</ele>
        <time>2016-01-23T12:15:47Z</time>
      </trkpt>
      <trkpt lat="43.83611" lon="3.73001">
        <ele>400.68064198873</ele>
        <time>2016-01-23T12:17:26Z</time>
      </trkpt>
      <trkpt lat="43.83611" lon="3.73001">
        <ele>400.68064198873</ele>
        <time>2016-01-23T12:17:26Z</time>
      </trkpt>
      <trkpt lat="43.83614" lon="3.73002">
        <ele>400.68064198873</ele>
        <time>2016-01-23T12:17:48Z</time>
      </trkpt>
      <trkpt lat="43.8375" lon="3.73133">
        <ele>403.44177129039</ele>
        <time>2016-01-23T12:21:48Z</time>
      </trkpt>
      <trkpt lat="43.83753" lon="3.73133">
        <ele>403.44177129039</ele>
        <time>2016-01-23T12:21:53Z</time>
      </trkpt>
      <trkpt lat="43.83807" lon="3.73176">
        <ele>403.85777047997</ele>
        <time>2016-01-23T12:23:14Z</time>
      </trkpt>
      <trkpt lat="43.83822" lon="3.73202">
        <ele>403.60696709299</ele>
        <time>2016-01-23T12:23:28Z</time>
      </trkpt>
      <trkpt lat="43.83851" lon="3.73234">
        <ele>402.67419997469</ele>
        <time>2016-01-23T12:24:04Z</time>
      </trkpt>
      <trkpt lat="43.83854" lon="3.73236">
        <ele>402.67419997469</ele>
        <time>2016-01-23T12:24:04Z</time>
      </trkpt>
      <trkpt lat="43.83903" lon="3.73286">
        <ele>400.71582719455</ele>
        <time>2016-01-23T12:25:00Z</time>
      </trkpt>
      <trkpt lat="43.83909" lon="3.73296">
        <ele>398.49805147811</ele>
        <time>2016-01-23T12:25:21Z</time>
      </trkpt>
      <trkpt lat="43.83912" lon="3.73302">
        <ele>398.49805147811</ele>
        <time>2016-01-23T12:25:21Z</time>
      </trkpt>
      <trkpt lat="43.83925" lon="3.7332">
        <ele>396.09696564857</ele>
        <time>2016-01-23T12:25:33Z</time>
      </trkpt>
      <trkpt lat="43.83931" lon="3.73327">
        <ele>396.09696564857</ele>
        <time>2016-01-23T12:25:38Z</time>
      </trkpt>
      <trkpt lat="43.83935" lon="3.73332">
        <ele>393.54034146426</ele>
        <time>2016-01-23T12:25:43Z</time>
      </trkpt>
      <trkpt lat="43.83937" lon="3.73339">
        <ele>393.54034146426</ele>
        <time>2016-01-23T12:25:48Z</time>
      </trkpt>
      <trkpt lat="43.8394" lon="3.73345">
        <ele>390.81106978407</ele>
        <time>2016-01-23T12:25:53Z</time>
      </trkpt>
      <trkpt lat="43.83941" lon="3.73351">
        <ele>390.81106978407</ele>
        <time>2016-01-23T12:25:58Z</time>
      </trkpt>
      <trkpt lat="43.83969" lon="3.73389">
        <ele>387.27377991714</ele>
        <time>2016-01-23T12:26:55Z</time>
      </trkpt>
      <trkpt lat="43.83972" lon="3.73386">
        <ele>387.27377991714</ele>
        <time>2016-01-23T12:26:58Z</time>
      </trkpt>
      <trkpt lat="43.83978" lon="3.73384">
        <ele>383.76931297241</ele>
        <time>2016-01-23T12:27:03Z</time>
      </trkpt>
      <trkpt lat="43.83986" lon="3.73381">
        <ele>383.76931297241</ele>
        <time>2016-01-23T12:27:08Z</time>
      </trkpt>
      <trkpt lat="43.83991" lon="3.73379">
        <ele>380.26904944225</ele>
        <time>2016-01-23T12:27:13Z</time>
      </trkpt>
      <trkpt lat="43.83992" lon="3.73377">
        <ele>380.26904944225</ele>
        <time>2016-01-23T12:27:18Z</time>
      </trkpt>
      <trkpt lat="43.83993" lon="3.73377">
        <ele>380.26904944225</ele>
        <time>2016-01-23T12:27:23Z</time>
      </trkpt>
      <trkpt lat="43.83999" lon="3.73374">
        <ele>380.26904944225</ele>
        <time>2016-01-23T12:27:28Z</time>
      </trkpt>
      <trkpt lat="43.84004" lon="3.73371">
        <ele>376.73187074232</ele>
        <time>2016-01-23T12:27:33Z</time>
      </trkpt>
      <trkpt lat="43.84008" lon="3.73368">
        <ele>376.73187074232</ele>
        <time>2016-01-23T12:27:38Z</time>
      </trkpt>
      <trkpt lat="43.84012" lon="3.73362">
        <ele>373.3357952799</ele>
        <time>2016-01-23T12:27:43Z</time>
      </trkpt>
      <trkpt lat="43.84015" lon="3.73361">
        <ele>373.3357952799</ele>
        <time>2016-01-23T12:27:48Z</time>
      </trkpt>
      <trkpt lat="43.84017" lon="3.73358">
        <ele>373.3357952799</ele>
        <time>2016-01-23T12:27:53Z</time>
      </trkpt>
      <trkpt lat="43.84023" lon="3.73355">
        <ele>370.07212346363</ele>
        <time>2016-01-23T12:27:58Z</time>
      </trkpt>
      <trkpt lat="43.84027" lon="3.73353">
        <ele>370.07212346363</ele>
        <time>2016-01-23T12:28:03Z</time>
      </trkpt>
      <trkpt lat="43.84031" lon="3.73352">
        <ele>370.07212346363</ele>
        <time>2016-01-23T12:28:08Z</time>
      </trkpt>
      <trkpt lat="43.84035" lon="3.73351">
        <ele>366.84566757295</ele>
        <time>2016-01-23T12:28:19Z</time>
      </trkpt>
      <trkpt lat="43.84052" lon="3.73348">
        <ele>363.8272792901</ele>
        <time>2016-01-23T12:28:40Z</time>
      </trkpt>
      <trkpt lat="43.84067" lon="3.73351">
        <ele>361.26081400394</ele>
        <time>2016-01-23T12:28:43Z</time>
      </trkpt>
      <trkpt lat="43.84078" lon="3.73348">
        <ele>358.88055935782</ele>
        <time>2016-01-23T12:28:53Z</time>
      </trkpt>
      <trkpt lat="43.84085" lon="3.73342">
        <ele>358.88055935782</ele>
        <time>2016-01-23T12:28:58Z</time>
      </trkpt>
      <trkpt lat="43.84088" lon="3.73339">
        <ele>356.77095731767</ele>
        <time>2016-01-23T12:29:03Z</time>
      </trkpt>
      <trkpt lat="43.84092" lon="3.73339">
        <ele>356.77095731767</ele>
        <time>2016-01-23T12:29:08Z</time>
      </trkpt>
      <trkpt lat="43.84117" lon="3.73337">
        <ele>355.54237079194</ele>
        <time>2016-01-23T12:29:38Z</time>
      </trkpt>
      <trkpt lat="43.84129" lon="3.73334">
        <ele>354.96481138028</ele>
        <time>2016-01-23T12:29:55Z</time>
      </trkpt>
      <trkpt lat="43.84133" lon="3.73334">
        <ele>354.96481138028</ele>
        <time>2016-01-23T12:29:58Z</time>
      </trkpt>
      <trkpt lat="43.84146" lon="3.73332">
        <ele>355.12566663702</ele>
        <time>2016-01-23T12:30:18Z</time>
      </trkpt>
      <trkpt lat="43.84153" lon="3.73333">
        <ele>355.12566663702</ele>
        <time>2016-01-23T12:30:18Z</time>
      </trkpt>
      <trkpt lat="43.84241" lon="3.73394">
        <ele>356.72318631153</ele>
        <time>2016-01-23T12:32:04Z</time>
      </trkpt>
      <trkpt lat="43.84252" lon="3.73396">
        <ele>358.2382398386</ele>
        <time>2016-01-23T12:32:15Z</time>
      </trkpt>
      <trkpt lat="43.84295" lon="3.73392">
        <ele>359.86291800766</ele>
        <time>2016-01-23T12:33:03Z</time>
      </trkpt>
      <trkpt lat="43.8432" lon="3.73373">
        <ele>360.996396507</ele>
        <time>2016-01-23T12:33:24Z</time>
      </trkpt>
      <trkpt lat="43.84325" lon="3.7337">
        <ele>360.996396507</ele>
        <time>2016-01-23T12:33:28Z</time>
      </trkpt>
      <trkpt lat="43.8433" lon="3.73368">
        <ele>361.52986232178</ele>
        <time>2016-01-23T12:33:33Z</time>
      </trkpt>
      <trkpt lat="43.8433" lon="3.73367">
        <ele>361.52986232178</ele>
        <time>2016-01-23T12:33:38Z</time>
      </trkpt>
      <trkpt lat="43.84333" lon="3.73362">
        <ele>361.52986232178</ele>
        <time>2016-01-23T12:33:43Z</time>
      </trkpt>
      <trkpt lat="43.84339" lon="3.7336">
        <ele>361.09012505224</ele>
        <time>2016-01-23T12:33:48Z</time>
      </trkpt>
      <trkpt lat="43.84344" lon="3.73358">
        <ele>361.09012505224</ele>
        <time>2016-01-23T12:33:53Z</time>
      </trkpt>
      <trkpt lat="43.84349" lon="3.73354">
        <ele>360.18417802654</ele>
        <time>2016-01-23T12:33:58Z</time>
      </trkpt>
      <trkpt lat="43.84424" lon="3.73348">
        <ele>357.65438902528</ele>
        <time>2016-01-23T12:35:27Z</time>
      </trkpt>
      <trkpt lat="43.84445" lon="3.7333">
        <ele>355.19946735583</ele>
        <time>2016-01-23T12:35:46Z</time>
      </trkpt>
      <trkpt lat="43.8446" lon="3.73316">
        <ele>352.67796961906</ele>
        <time>2016-01-23T12:35:55Z</time>
      </trkpt>
      <trkpt lat="43.84461" lon="3.73315">
        <ele>352.67796961906</ele>
        <time>2016-01-23T12:35:55Z</time>
      </trkpt>
      <trkpt lat="43.84484" lon="3.73283">
        <ele>349.87233760985</ele>
        <time>2016-01-23T12:36:35Z</time>
      </trkpt>
      <trkpt lat="43.84492" lon="3.73276">
        <ele>347.18683571463</ele>
        <time>2016-01-23T12:36:35Z</time>
      </trkpt>
      <trkpt lat="43.84563" lon="3.73209">
        <ele>343.78490080245</ele>
        <time>2016-01-23T12:37:53Z</time>
      </trkpt>
      <trkpt lat="43.84627" lon="3.73179">
        <ele>339.93080033469</ele>
        <time>2016-01-23T12:39:09Z</time>
      </trkpt>
      <trkpt lat="43.84649" lon="3.7316">
        <ele>336.18745074354</ele>
        <time>2016-01-23T12:39:24Z</time>
      </trkpt>
      <trkpt lat="43.84658" lon="3.73158">
        <ele>332.83084478292</ele>
        <time>2016-01-23T12:39:31Z</time>
      </trkpt>
      <trkpt lat="43.84692" lon="3.7315">
        <ele>329.27947311658</ele>
        <time>2016-01-23T12:40:16Z</time>
      </trkpt>
      <trkpt lat="43.84694" lon="3.7314">
        <ele>329.27947311658</ele>
        <time>2016-01-23T12:43:13Z</time>
      </trkpt>
      <trkpt lat="43.84694" lon="3.73138">
        <ele>324.95156651732</ele>
        <time>2016-01-23T12:43:18Z</time>
      </trkpt>
      <trkpt lat="43.84697" lon="3.73137">
        <ele>324.95156651732</ele>
        <time>2016-01-23T12:43:23Z</time>
      </trkpt>
      <trkpt lat="43.84701" lon="3.73136">
        <ele>324.95156651732</ele>
        <time>2016-01-23T12:43:28Z</time>
      </trkpt>
      <trkpt lat="43.84706" lon="3.73136">
        <ele>321.05376425815</ele>
        <time>2016-01-23T12:43:33Z</time>
      </trkpt>
      <trkpt lat="43.84724" lon="3.73099">
        <ele>317.99639637605</ele>
        <time>2016-01-23T12:44:04Z</time>
      </trkpt>
      <trkpt lat="43.84725" lon="3.73092">
        <ele>317.99639637605</ele>
        <time>2016-01-23T12:44:08Z</time>
      </trkpt>
      <trkpt lat="43.84728" lon="3.72875">
        <ele>316.58933390043</ele>
        <time>2016-01-23T12:46:15Z</time>
      </trkpt>
      <trkpt lat="43.84728" lon="3.7287">
        <ele>316.58933390043</ele>
        <time>2016-01-23T12:46:18Z</time>
      </trkpt>
      <trkpt lat="43.84728" lon="3.72861">
        <ele>315.24336446609</ele>
        <time>2016-01-23T12:46:23Z</time>
      </trkpt>
      <trkpt lat="43.84727" lon="3.72852">
        <ele>315.24336446609</ele>
        <time>2016-01-23T12:46:28Z</time>
      </trkpt>
      <trkpt lat="43.84727" lon="3.72846">
        <ele>313.86906450459</ele>
        <time>2016-01-23T12:46:38Z</time>
      </trkpt>
      <trkpt lat="43.84727" lon="3.72794">
        <ele>311.73486919914</ele>
        <time>2016-01-23T12:47:04Z</time>
      </trkpt>
      <trkpt lat="43.84704" lon="3.7267">
        <ele>309.82214706008</ele>
        <time>2016-01-23T12:48:25Z</time>
      </trkpt>
      <trkpt lat="43.84705" lon="3.72656">
        <ele>308.13138383466</ele>
        <time>2016-01-23T12:48:33Z</time>
      </trkpt>
      <trkpt lat="43.84715" lon="3.72524">
        <ele>307.0368717777</ele>
        <time>2016-01-23T12:49:52Z</time>
      </trkpt>
      <trkpt lat="43.84708" lon="3.72478">
        <ele>306.1629452553</ele>
        <time>2016-01-23T12:50:23Z</time>
      </trkpt>
      <trkpt lat="43.84706" lon="3.72471">
        <ele>306.1629452553</ele>
        <time>2016-01-23T12:50:28Z</time>
      </trkpt>
      <trkpt lat="43.84656" lon="3.72427">
        <ele>305.46335608966</ele>
        <time>2016-01-23T12:51:26Z</time>
      </trkpt>
      <trkpt lat="43.84647" lon="3.72422">
        <ele>304.8945818775</ele>
        <time>2016-01-23T12:51:26Z</time>
      </trkpt>
      <trkpt lat="43.84637" lon="3.72416">
        <ele>304.41576720375</ele>
        <time>2016-01-23T12:51:43Z</time>
      </trkpt>
      <trkpt lat="43.84626" lon="3.72411">
        <ele>304.08954123504</ele>
        <time>2016-01-23T12:51:44Z</time>
      </trkpt>
      <trkpt lat="43.84617" lon="3.72407">
        <ele>303.87250082533</ele>
        <time>2016-01-23T12:51:59Z</time>
      </trkpt>
      <trkpt lat="43.8461" lon="3.72401">
        <ele>303.87250082533</ele>
        <time>2016-01-23T12:51:59Z</time>
      </trkpt>
      <trkpt lat="43.84488" lon="3.72303">
        <ele>301.89378471202</ele>
        <time>2016-01-23T12:54:04Z</time>
      </trkpt>
      <trkpt lat="43.84484" lon="3.72305">
        <ele>301.89378471202</ele>
        <time>2016-01-23T12:54:04Z</time>
      </trkpt>
      <trkpt lat="43.84466" lon="3.72291">
        <ele>299.7682343213</ele>
        <time>2016-01-23T12:54:28Z</time>
      </trkpt>
      <trkpt lat="43.84474" lon="3.72276">
        <ele>297.69537209862</ele>
        <time>2016-01-23T12:54:45Z</time>
      </trkpt>
      <trkpt lat="43.84484" lon="3.72251">
        <ele>295.65807805353</ele>
        <time>2016-01-23T12:55:15Z</time>
      </trkpt>
      <trkpt lat="43.84485" lon="3.72251">
        <ele>295.65807805353</ele>
        <time>2016-01-23T12:55:18Z</time>
      </trkpt>
      <trkpt lat="43.8449" lon="3.72246">
        <ele>295.65807805353</ele>
        <time>2016-01-23T12:55:28Z</time>
      </trkpt>
      <trkpt lat="43.84492" lon="3.72241">
        <ele>293.51061205252</ele>
        <time>2016-01-23T12:55:33Z</time>
      </trkpt>
      <trkpt lat="43.845" lon="3.72224">
        <ele>291.42081003917</ele>
        <time>2016-01-23T12:55:45Z</time>
      </trkpt>
      <trkpt lat="43.84504" lon="3.72222">
        <ele>291.42081003917</ele>
        <time>2016-01-23T12:55:48Z</time>
      </trkpt>
      <trkpt lat="43.84509" lon="3.72218">
        <ele>289.47188856216</ele>
        <time>2016-01-23T12:55:58Z</time>
      </trkpt>
      <trkpt lat="43.84523" lon="3.72212">
        <ele>287.56755262848</ele>
        <time>2016-01-23T12:56:16Z</time>
      </trkpt>
      <trkpt lat="43.84545" lon="3.72189">
        <ele>285.56074571634</ele>
        <time>2016-01-23T12:56:42Z</time>
      </trkpt>
      <trkpt lat="43.8454" lon="3.72178">
        <ele>283.57484010355</ele>
        <time>2016-01-23T12:56:42Z</time>
      </trkpt>
      <trkpt lat="43.84526" lon="3.72163">
        <ele>281.59432692138</ele>
        <time>2016-01-23T12:57:07Z</time>
      </trkpt>
      <trkpt lat="43.84507" lon="3.72147">
        <ele>279.5471210157</ele>
        <time>2016-01-23T12:57:15Z</time>
      </trkpt>
      <trkpt lat="43.84494" lon="3.72131">
        <ele>277.71243437251</ele>
        <time>2016-01-23T12:57:59Z</time>
      </trkpt>
      <trkpt lat="43.84457" lon="3.72098">
        <ele>275.10896385955</ele>
        <time>2016-01-23T12:58:17Z</time>
      </trkpt>
      <trkpt lat="43.84431" lon="3.72092">
        <ele>272.42923561038</ele>
        <time>2016-01-23T12:58:28Z</time>
      </trkpt>
      <trkpt lat="43.84411" lon="3.7208">
        <ele>269.62333271586</ele>
        <time>2016-01-23T12:59:07Z</time>
      </trkpt>
      <trkpt lat="43.84442" lon="3.72055">
        <ele>266.29943977448</ele>
        <time>2016-01-23T13:00:16Z</time>
      </trkpt>
      <trkpt lat="43.84456" lon="3.72054">
        <ele>263.23439940452</ele>
        <time>2016-01-23T13:00:18Z</time>
      </trkpt>
      <trkpt lat="43.84487" lon="3.72051">
        <ele>259.97989938848</ele>
        <time>2016-01-23T13:00:46Z</time>
      </trkpt>
      <trkpt lat="43.8449" lon="3.72048">
        <ele>259.97989938848</ele>
        <time>2016-01-23T13:00:46Z</time>
      </trkpt>
      <trkpt lat="43.84493" lon="3.72043">
        <ele>259.97989938848</ele>
        <time>2016-01-23T13:00:48Z</time>
      </trkpt>
      <trkpt lat="43.84478" lon="3.7201">
        <ele>256.32278031422</ele>
        <time>2016-01-23T13:01:26Z</time>
      </trkpt>
      <trkpt lat="43.84465" lon="3.72002">
        <ele>252.97449827757</ele>
        <time>2016-01-23T13:01:26Z</time>
      </trkpt>
      <trkpt lat="43.84419" lon="3.71983">
        <ele>249.5845225648</ele>
        <time>2016-01-23T13:02:03Z</time>
      </trkpt>
      <trkpt lat="43.84392" lon="3.71992">
        <ele>246.27484972421</ele>
        <time>2016-01-23T13:02:23Z</time>
      </trkpt>
      <trkpt lat="43.84366" lon="3.72038">
        <ele>242.74027745846</ele>
        <time>2016-01-23T13:03:06Z</time>
      </trkpt>
      <trkpt lat="43.84365" lon="3.7205">
        <ele>239.47676196545</ele>
        <time>2016-01-23T13:03:09Z</time>
      </trkpt>
      <trkpt lat="43.84359" lon="3.72072">
        <ele>236.30888110723</ele>
        <time>2016-01-23T13:03:32Z</time>
      </trkpt>
      <trkpt lat="43.84327" lon="3.7205">
        <ele>230.78236002755</ele>
        <time>2016-01-23T13:06:16Z</time>
      </trkpt>
      <trkpt lat="43.84325" lon="3.72039">
        <ele>230.78236002755</ele>
        <time>2016-01-23T13:06:16Z</time>
      </trkpt>
      <trkpt lat="43.84328" lon="3.72022">
        <ele>225.54391347099</ele>
        <time>2016-01-23T13:06:32Z</time>
      </trkpt>
      <trkpt lat="43.84333" lon="3.71977">
        <ele>220.46531069795</ele>
        <time>2016-01-23T13:07:00Z</time>
      </trkpt>
      <trkpt lat="43.84353" lon="3.71948">
        <ele>215.49921496273</ele>
        <time>2016-01-23T13:07:31Z</time>
      </trkpt>
      <trkpt lat="43.8436" lon="3.71937">
        <ele>210.97599474644</ele>
        <time>2016-01-23T13:07:31Z</time>
      </trkpt>
      <trkpt lat="43.84368" lon="3.71928">
        <ele>206.82566324205</ele>
        <time>2016-01-23T13:07:40Z</time>
      </trkpt>
      <trkpt lat="43.84383" lon="3.71893">
        <ele>202.13191025143</ele>
        <time>2016-01-23T13:09:00Z</time>
      </trkpt>
      <trkpt lat="43.8453" lon="3.71907">
        <ele>197.01263933548</ele>
        <time>2016-01-23T13:10:24Z</time>
      </trkpt>
      <trkpt lat="43.84534" lon="3.71907">
        <ele>197.01263933548</ele>
        <time>2016-01-23T13:10:30Z</time>
      </trkpt>
      <trkpt lat="43.84699" lon="3.71677">
        <ele>190.5693325607</ele>
        <time>2016-01-23T13:13:57Z</time>
      </trkpt>
      <trkpt lat="43.84734" lon="3.71667">
        <ele>184.92728845156</ele>
        <time>2016-01-23T13:14:23Z</time>
      </trkpt>
      <trkpt lat="43.84752" lon="3.71662">
        <ele>179.89157288595</ele>
        <time>2016-01-23T13:14:41Z</time>
      </trkpt>
      <trkpt lat="43.84896" lon="3.71608">
        <ele>174.17001142365</ele>
        <time>2016-01-23T13:17:06Z</time>
      </trkpt>
      <trkpt lat="43.84981" lon="3.71552">
        <ele>169.04577995367</ele>
        <time>2016-01-23T13:18:21Z</time>
      </trkpt>
      <trkpt lat="43.84984" lon="3.71551">
        <ele>169.04577995367</ele>
        <time>2016-01-23T13:18:23Z</time>
      </trkpt>
      <trkpt lat="43.84994" lon="3.71544">
        <ele>164.59624749772</ele>
        <time>2016-01-23T13:18:43Z</time>
      </trkpt>
      <trkpt lat="43.85059" lon="3.71508">
        <ele>160.48748213111</ele>
        <time>2016-01-23T13:19:51Z</time>
      </trkpt>
      <trkpt lat="43.85081" lon="3.71495">
        <ele>156.91330608451</ele>
        <time>2016-01-23T13:19:58Z</time>
      </trkpt>
      <trkpt lat="43.8524" lon="3.71417">
        <ele>151.99080853056</ele>
        <time>2016-01-23T13:22:19Z</time>
      </trkpt>
      <trkpt lat="43.85244" lon="3.71406">
        <ele>147.6105844333</ele>
        <time>2016-01-23T13:22:23Z</time>
      </trkpt>
      <trkpt lat="43.85256" lon="3.71377">
        <ele>143.63477812832</ele>
        <time>2016-01-23T13:22:50Z</time>
      </trkpt>
      <trkpt lat="43.85261" lon="3.71365">
        <ele>140.17933328073</ele>
        <time>2016-01-23T13:22:50Z</time>
      </trkpt>
      <trkpt lat="43.8529" lon="3.71264">
        <ele>136.54302019131</ele>
        <time>2016-01-23T13:23:54Z</time>
      </trkpt>
      <trkpt lat="43.85296" lon="3.71243">
        <ele>133.22935583859</ele>
        <time>2016-01-23T13:24:17Z</time>
      </trkpt>
      <trkpt lat="43.85301" lon="3.71224">
        <ele>130.34353679149</ele>
        <time>2016-01-23T13:24:17Z</time>
      </trkpt>
      <trkpt lat="43.85308" lon="3.71198">
        <ele>127.85199744121</ele>
        <time>2016-01-23T13:24:42Z</time>
      </trkpt>
      <trkpt lat="43.85308" lon="3.71179">
        <ele>125.73682546044</ele>
        <time>2016-01-23T13:24:42Z</time>
      </trkpt>
      <trkpt lat="43.85256" lon="3.71051">
        <ele>119.57045996614</ele>
        <time>2016-01-23T13:26:19Z</time>
      </trkpt>
      <trkpt lat="43.85205" lon="3.70978">
        <ele>113.33207900847</ele>
        <time>2016-01-23T13:27:23Z</time>
      </trkpt>
      <trkpt lat="43.85199" lon="3.70971">
        <ele>113.33207900847</ele>
        <time>2016-01-23T13:27:28Z</time>
      </trkpt>
      <trkpt lat="43.85196" lon="3.70962">
        <ele>107.84084413535</ele>
        <time>2016-01-23T13:27:33Z</time>
      </trkpt>
      <trkpt lat="43.85197" lon="3.70961">
        <ele>107.84084413535</ele>
        <time>2016-01-23T13:27:38Z</time>
      </trkpt>
      <trkpt lat="43.85186" lon="3.70946">
        <ele>103.66620074756</ele>
        <time>2016-01-23T13:27:53Z</time>
      </trkpt>
      <trkpt lat="43.85171" lon="3.70915">
        <ele>100.15025392313</ele>
        <time>2016-01-23T13:28:09Z</time>
      </trkpt>
      <trkpt lat="43.85162" lon="3.70908">
        <ele>97.113821758408</ele>
        <time>2016-01-23T13:28:24Z</time>
      </trkpt>
      <trkpt lat="43.85032" lon="3.70955">
        <ele>96.190840349166</ele>
        <time>2016-01-23T13:30:18Z</time>
      </trkpt>
      <trkpt lat="43.85015" lon="3.70987">
        <ele>95.805240086568</ele>
        <time>2016-01-23T13:30:46Z</time>
      </trkpt>
      <trkpt lat="43.85008" lon="3.70993">
        <ele>95.805240086568</ele>
        <time>2016-01-23T13:30:47Z</time>
      </trkpt>
      <trkpt lat="43.84925" lon="3.71051">
        <ele>97.045946944072</ele>
        <time>2016-01-23T13:32:05Z</time>
      </trkpt>
      <trkpt lat="43.84854" lon="3.71095">
        <ele>98.971825306226</ele>
        <time>2016-01-23T13:33:03Z</time>
      </trkpt>
      <trkpt lat="43.84845" lon="3.71099">
        <ele>101.02603166295</ele>
        <time>2016-01-23T13:33:08Z</time>
      </trkpt>
      <trkpt lat="43.84824" lon="3.71108">
        <ele>103.03821229165</ele>
        <time>2016-01-23T13:33:23Z</time>
      </trkpt>
      <trkpt lat="43.84768" lon="3.71165">
        <ele>105.08134442671</ele>
        <time>2016-01-23T13:34:18Z</time>
      </trkpt>
      <trkpt lat="43.84761" lon="3.71169">
        <ele>105.08134442671</ele>
        <time>2016-01-23T13:34:23Z</time>
      </trkpt>
      <trkpt lat="43.84709" lon="3.71195">
        <ele>106.63226306327</ele>
        <time>2016-01-23T13:35:14Z</time>
      </trkpt>
      <trkpt lat="43.847" lon="3.71194">
        <ele>108.38952465251</ele>
        <time>2016-01-23T13:35:17Z</time>
      </trkpt>
      <trkpt lat="43.84665" lon="3.71185">
        <ele>110.19299879932</ele>
        <time>2016-01-23T13:35:48Z</time>
      </trkpt>
      <trkpt lat="43.84603" lon="3.71142">
        <ele>111.7791581274</ele>
        <time>2016-01-23T13:36:42Z</time>
      </trkpt>
      <trkpt lat="43.84537" lon="3.71077">
        <ele>113.62528326701</ele>
        <time>2016-01-23T13:37:44Z</time>
      </trkpt>
      <trkpt lat="43.84525" lon="3.71065">
        <ele>115.5102604163</ele>
        <time>2016-01-23T13:37:56Z</time>
      </trkpt>
      <trkpt lat="43.84496" lon="3.71047">
        <ele>117.14297004322</ele>
        <time>2016-01-23T13:38:08Z</time>
      </trkpt>
      <trkpt lat="43.84492" lon="3.7104">
        <ele>117.14297004322</ele>
        <time>2016-01-23T13:38:13Z</time>
      </trkpt>
      <trkpt lat="43.84487" lon="3.71035">
        <ele>118.62941916493</ele>
        <time>2016-01-23T13:38:18Z</time>
      </trkpt>
      <trkpt lat="43.84483" lon="3.7103">
        <ele>118.62941916493</ele>
        <time>2016-01-23T13:38:23Z</time>
      </trkpt>
      <trkpt lat="43.84478" lon="3.71025">
        <ele>120.03977452379</ele>
        <time>2016-01-23T13:38:28Z</time>
      </trkpt>
      <trkpt lat="43.84473" lon="3.71019">
        <ele>120.03977452379</ele>
        <time>2016-01-23T13:38:33Z</time>
      </trkpt>
      <trkpt lat="43.84469" lon="3.71014">
        <ele>121.28110967235</ele>
        <time>2016-01-23T13:38:38Z</time>
      </trkpt>
      <trkpt lat="43.84454" lon="3.70992">
        <ele>122.16729841929</ele>
        <time>2016-01-23T13:38:55Z</time>
      </trkpt>
      <trkpt lat="43.84404" lon="3.70921">
        <ele>122.33992009371</ele>
        <time>2016-01-23T13:40:00Z</time>
      </trkpt>
      <trkpt lat="43.84334" lon="3.70792">
        <ele>122.57892219312</ele>
        <time>2016-01-23T13:41:21Z</time>
      </trkpt>
      <trkpt lat="43.84333" lon="3.7079">
        <ele>122.57892219312</ele>
        <time>2016-01-23T13:41:23Z</time>
      </trkpt>
      <trkpt lat="43.84328" lon="3.70778">
        <ele>123.23246075813</ele>
        <time>2016-01-23T13:41:28Z</time>
      </trkpt>
      <trkpt lat="43.84327" lon="3.70769">
        <ele>123.23246075813</ele>
        <time>2016-01-23T13:41:33Z</time>
      </trkpt>
      <trkpt lat="43.84327" lon="3.70761">
        <ele>124.14676057698</ele>
        <time>2016-01-23T13:41:38Z</time>
      </trkpt>
      <trkpt lat="43.84325" lon="3.70757">
        <ele>124.14676057698</ele>
        <time>2016-01-23T13:41:43Z</time>
      </trkpt>
      <trkpt lat="43.84324" lon="3.70746">
        <ele>125.06369120323</ele>
        <time>2016-01-23T13:41:48Z</time>
      </trkpt>
      <trkpt lat="43.84324" lon="3.70737">
        <ele>125.06369120323</ele>
        <time>2016-01-23T13:41:53Z</time>
      </trkpt>
      <trkpt lat="43.84322" lon="3.70729">
        <ele>125.83090818558</ele>
        <time>2016-01-23T13:41:58Z</time>
      </trkpt>
      <trkpt lat="43.84323" lon="3.70725">
        <ele>125.83090818558</ele>
        <time>2016-01-23T13:42:03Z</time>
      </trkpt>
      <trkpt lat="43.84322" lon="3.70696">
        <ele>124.6939900632</ele>
        <time>2016-01-23T13:42:20Z</time>
      </trkpt>
      <trkpt lat="43.84323" lon="3.70692">
        <ele>124.6939900632</ele>
        <time>2016-01-23T13:42:23Z</time>
      </trkpt>
      <trkpt lat="43.84324" lon="3.70684">
        <ele>124.6939900632</ele>
        <time>2016-01-23T13:42:28Z</time>
      </trkpt>
      <trkpt lat="43.84324" lon="3.70675">
        <ele>123.00177127868</ele>
        <time>2016-01-23T13:42:33Z</time>
      </trkpt>
      <trkpt lat="43.84319" lon="3.70639">
        <ele>121.42944369558</ele>
        <time>2016-01-23T13:44:13Z</time>
      </trkpt>
      <trkpt lat="43.84342" lon="3.70497">
        <ele>119.42085900387</ele>
        <time>2016-01-23T13:44:26Z</time>
      </trkpt>
      <trkpt lat="43.84354" lon="3.70434">
        <ele>117.57188502358</ele>
        <time>2016-01-23T13:45:17Z</time>
      </trkpt>
      <trkpt lat="43.84399" lon="3.70264">
        <ele>117.01087348397</ele>
        <time>2016-01-23T13:46:33Z</time>
      </trkpt>
      <trkpt lat="43.84403" lon="3.70207">
        <ele>116.27237882148</ele>
        <time>2016-01-23T13:47:13Z</time>
      </trkpt>
      <trkpt lat="43.844" lon="3.70197">
        <ele>116.27237882148</ele>
        <time>2016-01-23T13:47:18Z</time>
      </trkpt>
      <trkpt lat="43.84385" lon="3.70134">
        <ele>115.2819134465</ele>
        <time>2016-01-23T13:48:23Z</time>
      </trkpt>
      <trkpt lat="43.84384" lon="3.70126">
        <ele>115.2819134465</ele>
        <time>2016-01-23T13:48:28Z</time>
      </trkpt>
      <trkpt lat="43.84385" lon="3.70117">
        <ele>114.4325288315</ele>
        <time>2016-01-23T13:48:33Z</time>
      </trkpt>
      <trkpt lat="43.84386" lon="3.70111">
        <ele>114.4325288315</ele>
        <time>2016-01-23T13:48:38Z</time>
      </trkpt>
      <trkpt lat="43.8439" lon="3.70108">
        <ele>114.4325288315</ele>
        <time>2016-01-23T13:48:43Z</time>
      </trkpt>
      <trkpt lat="43.84394" lon="3.70105">
        <ele>113.64145384049</ele>
        <time>2016-01-23T13:48:48Z</time>
      </trkpt>
      <trkpt lat="43.84395" lon="3.70104">
        <ele>113.64145384049</ele>
        <time>2016-01-23T13:49:00Z</time>
      </trkpt>
      <trkpt lat="43.84402" lon="3.70101">
        <ele>113.64145384049</ele>
        <time>2016-01-23T13:49:13Z</time>
      </trkpt>
      <trkpt lat="43.84404" lon="3.70104">
        <ele>113.36522395585</ele>
        <time>2016-01-23T13:50:23Z</time>
      </trkpt>
      <trkpt lat="43.84405" lon="3.70104">
        <ele>113.36522395585</ele>
        <time>2016-01-23T13:50:28Z</time>
      </trkpt>
      <trkpt lat="43.84395" lon="3.70104">
        <ele>112.81502640731</ele>
        <time>2016-01-23T13:51:20Z</time>
      </trkpt>
      <trkpt lat="43.84391" lon="3.70153">
        <ele>112.45704194323</ele>
        <time>2016-01-23T13:52:00Z</time>
      </trkpt>
      <trkpt lat="43.84377" lon="3.70339">
        <ele>112.46341476514</ele>
        <time>2016-01-23T13:53:53Z</time>
      </trkpt>
      <trkpt lat="43.84376" lon="3.70347">
        <ele>112.46341476514</ele>
        <time>2016-01-23T13:53:58Z</time>
      </trkpt>
      <trkpt lat="43.84373" lon="3.70366">
        <ele>112.48837323761</ele>
        <time>2016-01-23T13:54:08Z</time>
      </trkpt>
      <trkpt lat="43.84366" lon="3.70392">
        <ele>112.44220626445</ele>
        <time>2016-01-23T13:54:22Z</time>
      </trkpt>
      <trkpt lat="43.84366" lon="3.70396">
        <ele>112.44220626445</ele>
        <time>2016-01-23T13:54:23Z</time>
      </trkpt>
      <trkpt lat="43.84365" lon="3.70406">
        <ele>112.37182168221</ele>
        <time>2016-01-23T13:54:28Z</time>
      </trkpt>
      <trkpt lat="43.84358" lon="3.70424">
        <ele>112.29205139861</ele>
        <time>2016-01-23T13:54:38Z</time>
      </trkpt>
      <trkpt lat="43.84357" lon="3.70431">
        <ele>112.29205139861</ele>
        <time>2016-01-23T13:54:43Z</time>
      </trkpt>
      <trkpt lat="43.84353" lon="3.70446">
        <ele>112.15913852713</ele>
        <time>2016-01-23T13:54:53Z</time>
      </trkpt>
      <trkpt lat="43.84348" lon="3.70454">
        <ele>112.15913852713</ele>
        <time>2016-01-23T13:54:58Z</time>
      </trkpt>
      <trkpt lat="43.84342" lon="3.70473">
        <ele>112.04809198078</ele>
        <time>2016-01-23T13:55:11Z</time>
      </trkpt>
      <trkpt lat="43.84342" lon="3.70475">
        <ele>112.04809198078</ele>
        <time>2016-01-23T13:55:16Z</time>
      </trkpt>
      <trkpt lat="43.84333" lon="3.70519">
        <ele>111.89875701874</ele>
        <time>2016-01-23T13:55:41Z</time>
      </trkpt>
      <trkpt lat="43.84317" lon="3.70607">
        <ele>112.92378779354</ele>
        <time>2016-01-23T13:56:31Z</time>
      </trkpt>
      <trkpt lat="43.84316" lon="3.70623">
        <ele>114.11072030853</ele>
        <time>2016-01-23T13:56:36Z</time>
      </trkpt>
      <trkpt lat="43.84319" lon="3.70663">
        <ele>116.35132802822</ele>
        <time>2016-01-23T13:57:16Z</time>
      </trkpt>
      <trkpt lat="43.84318" lon="3.70698">
        <ele>118.71087410751</ele>
        <time>2016-01-23T13:57:19Z</time>
      </trkpt>
      <trkpt lat="43.84324" lon="3.70743">
        <ele>121.76418666105</ele>
        <time>2016-01-23T13:57:51Z</time>
      </trkpt>
      <trkpt lat="43.84325" lon="3.70767">
        <ele>124.88916665766</ele>
        <time>2016-01-23T13:58:10Z</time>
      </trkpt>
      <trkpt lat="43.84321" lon="3.7078">
        <ele>127.81199607574</ele>
        <time>2016-01-23T13:58:10Z</time>
      </trkpt>
      <trkpt lat="43.84319" lon="3.70856">
        <ele>130.45263547276</ele>
        <time>2016-01-23T13:59:01Z</time>
      </trkpt>
      <trkpt lat="43.84318" lon="3.70858">
        <ele>130.45263547276</ele>
        <time>2016-01-23T13:59:03Z</time>
      </trkpt>
      <trkpt lat="43.84259" lon="3.70894">
        <ele>132.92523720941</ele>
        <time>2016-01-23T14:00:45Z</time>
      </trkpt>
      <trkpt lat="43.84256" lon="3.70895">
        <ele>132.92523720941</ele>
        <time>2016-01-23T14:00:48Z</time>
      </trkpt>
      <trkpt lat="43.84248" lon="3.70901">
        <ele>135.10564695331</ele>
        <time>2016-01-23T14:00:58Z</time>
      </trkpt>
      <trkpt lat="43.84243" lon="3.70904">
        <ele>135.10564695331</ele>
        <time>2016-01-23T14:01:03Z</time>
      </trkpt>
      <trkpt lat="43.84234" lon="3.7091">
        <ele>136.95189719301</ele>
        <time>2016-01-23T14:01:13Z</time>
      </trkpt>
      <trkpt lat="43.8423" lon="3.70915">
        <ele>136.95189719301</ele>
        <time>2016-01-23T14:01:18Z</time>
      </trkpt>
      <trkpt lat="43.84218" lon="3.70924">
        <ele>138.52711244406</ele>
        <time>2016-01-23T14:01:28Z</time>
      </trkpt>
      <trkpt lat="43.84212" lon="3.70927">
        <ele>138.52711244406</ele>
        <time>2016-01-23T14:01:33Z</time>
      </trkpt>
      <trkpt lat="43.84194" lon="3.70938">
        <ele>139.78985597862</ele>
        <time>2016-01-23T14:01:55Z</time>
      </trkpt>
      <trkpt lat="43.84192" lon="3.70941">
        <ele>139.78985597862</ele>
        <time>2016-01-23T14:01:55Z</time>
      </trkpt>
      <trkpt lat="43.84189" lon="3.7095">
        <ele>140.86132370411</ele>
        <time>2016-01-23T14:02:04Z</time>
      </trkpt>
      <trkpt lat="43.8419" lon="3.70958">
        <ele>140.86132370411</ele>
        <time>2016-01-23T14:02:25Z</time>
      </trkpt>
      <trkpt lat="43.8419" lon="3.7096">
        <ele>140.86132370411</ele>
        <time>2016-01-23T14:04:07Z</time>
      </trkpt>
      <trkpt lat="43.84199" lon="3.70953">
        <ele>141.2924946547</ele>
        <time>2016-01-23T14:05:36Z</time>
      </trkpt>
      <trkpt lat="43.84191" lon="3.70962">
        <ele>140.56842308049</ele>
        <time>2016-01-23T14:07:18Z</time>
      </trkpt>
      <trkpt lat="43.84134" lon="3.71009">
        <ele>139.33945543094</ele>
        <time>2016-01-23T14:10:05Z</time>
      </trkpt>
      <trkpt lat="43.84131" lon="3.71015">
        <ele>139.33945543094</ele>
        <time>2016-01-23T14:10:05Z</time>
      </trkpt>
      <trkpt lat="43.84105" lon="3.71067">
        <ele>138.26736270124</ele>
        <time>2016-01-23T14:10:55Z</time>
      </trkpt>
      <trkpt lat="43.841" lon="3.71086">
        <ele>137.2300114712</ele>
        <time>2016-01-23T14:11:09Z</time>
      </trkpt>
      <trkpt lat="43.84089" lon="3.71105">
        <ele>136.22952489648</ele>
        <time>2016-01-23T14:11:18Z</time>
      </trkpt>
      <trkpt lat="43.84085" lon="3.71112">
        <ele>136.22952489648</ele>
        <time>2016-01-23T14:11:23Z</time>
      </trkpt>
      <trkpt lat="43.8407" lon="3.71136">
        <ele>135.3687165886</ele>
        <time>2016-01-23T14:11:43Z</time>
      </trkpt>
      <trkpt lat="43.84059" lon="3.71155">
        <ele>134.55516399424</ele>
        <time>2016-01-23T14:11:58Z</time>
      </trkpt>
      <trkpt lat="43.84026" lon="3.71228">
        <ele>134.27958229241</ele>
        <time>2016-01-23T14:13:13Z</time>
      </trkpt>
      <trkpt lat="43.8402" lon="3.71238">
        <ele>134.08725177062</ele>
        <time>2016-01-23T14:13:13Z</time>
      </trkpt>
      <trkpt lat="43.83954" lon="3.71273">
        <ele>134.5221792496</ele>
        <time>2016-01-23T14:14:25Z</time>
      </trkpt>
      <trkpt lat="43.83944" lon="3.71287">
        <ele>135.43815434611</ele>
        <time>2016-01-23T14:15:20Z</time>
      </trkpt>
      <trkpt lat="43.83935" lon="3.71375">
        <ele>137.92330710082</ele>
        <time>2016-01-23T14:15:23Z</time>
      </trkpt>
      <trkpt lat="43.83932" lon="3.7139">
        <ele>140.56037312373</ele>
        <time>2016-01-23T14:15:33Z</time>
      </trkpt>
      <trkpt lat="43.8393" lon="3.71414">
        <ele>143.4048472942</ele>
        <time>2016-01-23T14:15:55Z</time>
      </trkpt>
      <trkpt lat="43.83929" lon="3.71424">
        <ele>143.4048472942</ele>
        <time>2016-01-23T14:15:55Z</time>
      </trkpt>
      <trkpt lat="43.83924" lon="3.71448">
        <ele>146.68053109369</ele>
        <time>2016-01-23T14:16:16Z</time>
      </trkpt>
      <trkpt lat="43.83924" lon="3.71453">
        <ele>146.68053109369</ele>
        <time>2016-01-23T14:16:20Z</time>
      </trkpt>
      <trkpt lat="43.8392" lon="3.71482">
        <ele>150.39186881922</ele>
        <time>2016-01-23T14:16:46Z</time>
      </trkpt>
      <trkpt lat="43.8391" lon="3.71522">
        <ele>154.39771138926</ele>
        <time>2016-01-23T14:17:05Z</time>
      </trkpt>
      <trkpt lat="43.83819" lon="3.71614">
        <ele>159.53208427688</ele>
        <time>2016-01-23T14:18:53Z</time>
      </trkpt>
      <trkpt lat="43.8379" lon="3.7163">
        <ele>164.72006692509</ele>
        <time>2016-01-23T14:19:27Z</time>
      </trkpt>
      <trkpt lat="43.83789" lon="3.7163">
        <ele>164.72006692509</ele>
        <time>2016-01-23T14:19:28Z</time>
      </trkpt>
      <trkpt lat="43.83746" lon="3.71654">
        <ele>170.04651930876</ele>
        <time>2016-01-23T14:20:08Z</time>
      </trkpt>
      <trkpt lat="43.83736" lon="3.71659">
        <ele>174.95574851417</ele>
        <time>2016-01-23T14:20:24Z</time>
      </trkpt>
      <trkpt lat="43.83695" lon="3.71688">
        <ele>180.08712445814</ele>
        <time>2016-01-23T14:21:10Z</time>
      </trkpt>
      <trkpt lat="43.83602" lon="3.71767">
        <ele>186.55143199856</ele>
        <time>2016-01-23T14:23:18Z</time>
      </trkpt>
      <trkpt lat="43.83604" lon="3.7178">
        <ele>192.53535664169</ele>
        <time>2016-01-23T14:23:25Z</time>
      </trkpt>
      <trkpt lat="43.83601" lon="3.71815">
        <ele>198.43558612963</ele>
        <time>2016-01-23T14:23:55Z</time>
      </trkpt>
      <trkpt lat="43.8359" lon="3.71838">
        <ele>204.11578267243</ele>
        <time>2016-01-23T14:24:09Z</time>
      </trkpt>
      <trkpt lat="43.83577" lon="3.71856">
        <ele>209.50817262688</ele>
        <time>2016-01-23T14:24:35Z</time>
      </trkpt>
      <trkpt lat="43.83563" lon="3.71871">
        <ele>214.63753574142</ele>
        <time>2016-01-23T14:24:48Z</time>
      </trkpt>
      <trkpt lat="43.83551" lon="3.71891">
        <ele>219.16760119227</ele>
        <time>2016-01-23T14:25:17Z</time>
      </trkpt>
      <trkpt lat="43.8352" lon="3.72049">
        <ele>225.16663343977</ele>
        <time>2016-01-23T14:27:25Z</time>
      </trkpt>
      <trkpt lat="43.83519" lon="3.72051">
        <ele>225.16663343977</ele>
        <time>2016-01-23T14:27:28Z</time>
      </trkpt>
      <trkpt lat="43.83516" lon="3.72061">
        <ele>230.49764125774</ele>
        <time>2016-01-23T14:27:43Z</time>
      </trkpt>
      <trkpt lat="43.83513" lon="3.72075">
        <ele>235.14272680779</ele>
        <time>2016-01-23T14:28:00Z</time>
      </trkpt>
      <trkpt lat="43.83471" lon="3.72261">
        <ele>240.16839257971</ele>
        <time>2016-01-23T14:30:58Z</time>
      </trkpt>
      <trkpt lat="43.83467" lon="3.72279">
        <ele>244.73184456539</ele>
        <time>2016-01-23T14:31:14Z</time>
      </trkpt>
      <trkpt lat="43.83458" lon="3.72303">
        <ele>248.88966511726</ele>
        <time>2016-01-23T14:31:28Z</time>
      </trkpt>
      <trkpt lat="43.83438" lon="3.72339">
        <ele>252.58044588409</ele>
        <time>2016-01-23T14:32:05Z</time>
      </trkpt>
      <trkpt lat="43.83426" lon="3.72356">
        <ele>255.8497843558</ele>
        <time>2016-01-23T14:33:00Z</time>
      </trkpt>
      <trkpt lat="43.83422" lon="3.72367">
        <ele>255.8497843558</ele>
        <time>2016-01-23T14:34:03Z</time>
      </trkpt>
      <trkpt lat="43.83421" lon="3.72368">
        <ele>258.45318092564</ele>
        <time>2016-01-23T14:34:08Z</time>
      </trkpt>
      <trkpt lat="43.83421" lon="3.72371">
        <ele>258.45318092564</ele>
        <time>2016-01-23T14:35:48Z</time>
      </trkpt>
      <trkpt lat="43.83421" lon="3.72371">
        <ele>258.45318092564</ele>
        <time>2016-01-23T14:35:53Z</time>
      </trkpt>
      <trkpt lat="43.83419" lon="3.72373">
        <ele>258.45318092564</ele>
        <time>2016-01-23T14:36:11Z</time>
      </trkpt>
      <trkpt lat="43.83398" lon="3.72384">
        <ele>260.67062856479</ele>
        <time>2016-01-23T14:36:45Z</time>
      </trkpt>
      <trkpt lat="43.8339" lon="3.7238">
        <ele>260.67062856479</ele>
        <time>2016-01-23T14:37:03Z</time>
      </trkpt>
      <trkpt lat="43.83388" lon="3.72374">
        <ele>262.50348777416</ele>
        <time>2016-01-23T14:37:09Z</time>
      </trkpt>
      <trkpt lat="43.83386" lon="3.72359">
        <ele>263.85344856512</ele>
        <time>2016-01-23T14:37:24Z</time>
      </trkpt>
      <trkpt lat="43.83382" lon="3.72354">
        <ele>263.85344856512</ele>
        <time>2016-01-23T14:37:28Z</time>
      </trkpt>
      <trkpt lat="43.83379" lon="3.72347">
        <ele>264.71744506837</ele>
        <time>2016-01-23T14:37:45Z</time>
      </trkpt>
      <trkpt lat="43.83366" lon="3.72338">
        <ele>265.19504911805</ele>
        <time>2016-01-23T14:37:54Z</time>
      </trkpt>
      <trkpt lat="43.83365" lon="3.72334">
        <ele>265.19504911805</ele>
        <time>2016-01-23T14:37:58Z</time>
      </trkpt>
      <trkpt lat="43.83353" lon="3.72308">
        <ele>265.65355376032</ele>
        <time>2016-01-23T14:38:19Z</time>
      </trkpt>
      <trkpt lat="43.83288" lon="3.72225">
        <ele>267.7160258246</ele>
        <time>2016-01-23T14:40:03Z</time>
      </trkpt>
      <trkpt lat="43.83227" lon="3.72156">
        <ele>270.28788878196</ele>
        <time>2016-01-23T14:41:24Z</time>
      </trkpt>
      <trkpt lat="43.83219" lon="3.72154">
        <ele>270.28788878196</ele>
        <time>2016-01-23T14:41:26Z</time>
      </trkpt>
      <trkpt lat="43.83186" lon="3.72154">
        <ele>273.01652237464</ele>
        <time>2016-01-23T14:41:52Z</time>
      </trkpt>
      <trkpt lat="43.83185" lon="3.72154">
        <ele>273.01652237464</ele>
        <time>2016-01-23T14:41:53Z</time>
      </trkpt>
      <trkpt lat="43.8306" lon="3.72235">
        <ele>276.90064743521</ele>
        <time>2016-01-23T14:44:07Z</time>
      </trkpt>
      <trkpt lat="43.82994" lon="3.72212">
        <ele>280.29724685718</ele>
        <time>2016-01-23T14:45:44Z</time>
      </trkpt>
      <trkpt lat="43.82986" lon="3.72201">
        <ele>283.1553430047</ele>
        <time>2016-01-23T14:46:00Z</time>
      </trkpt>
      <trkpt lat="43.82949" lon="3.72194">
        <ele>285.48689620865</ele>
        <time>2016-01-23T14:46:33Z</time>
      </trkpt>
      <trkpt lat="43.82946" lon="3.72192">
        <ele>285.48689620865</ele>
        <time>2016-01-23T14:46:38Z</time>
      </trkpt>
      <trkpt lat="43.82945" lon="3.72192">
        <ele>285.48689620865</ele>
        <time>2016-01-23T14:46:43Z</time>
      </trkpt>
      <trkpt lat="43.82942" lon="3.72194">
        <ele>285.48689620865</ele>
        <time>2016-01-23T14:46:58Z</time>
      </trkpt>
      <trkpt lat="43.82938" lon="3.72196">
        <ele>287.16038528936</ele>
        <time>2016-01-23T14:47:05Z</time>
      </trkpt>
      <trkpt lat="43.82937" lon="3.72196">
        <ele>287.16038528936</ele>
        <time>2016-01-23T14:47:08Z</time>
      </trkpt>
      <trkpt lat="43.82932" lon="3.72191">
        <ele>287.16038528936</ele>
        <time>2016-01-23T14:47:18Z</time>
      </trkpt>
      <trkpt lat="43.82933" lon="3.72188">
        <ele>288.40168361909</ele>
        <time>2016-01-23T14:47:23Z</time>
      </trkpt>
      <trkpt lat="43.82912" lon="3.72166">
        <ele>289.23394559012</ele>
        <time>2016-01-23T14:47:58Z</time>
      </trkpt>
      <trkpt lat="43.8291" lon="3.72164">
        <ele>289.23394559012</ele>
        <time>2016-01-23T14:48:07Z</time>
      </trkpt>
      <trkpt lat="43.82909" lon="3.72164">
        <ele>289.23394559012</ele>
        <time>2016-01-23T14:49:00Z</time>
      </trkpt>
      <trkpt lat="43.82904" lon="3.7214">
        <ele>289.20419249432</ele>
        <time>2016-01-23T14:49:03Z</time>
      </trkpt>
      <trkpt lat="43.82824" lon="3.7211">
        <ele>287.47718047783</ele>
        <time>2016-01-23T14:51:13Z</time>
      </trkpt>
      <trkpt lat="43.82793" lon="3.72113">
        <ele>285.24363074319</ele>
        <time>2016-01-23T14:51:57Z</time>
      </trkpt>
      <trkpt lat="43.82793" lon="3.72113">
        <ele>285.24363074319</ele>
        <time>2016-01-23T14:51:58Z</time>
      </trkpt>
      <trkpt lat="43.82787" lon="3.72118">
        <ele>285.24363074319</ele>
        <time>2016-01-23T14:52:05Z</time>
      </trkpt>
      <trkpt lat="43.82786" lon="3.7212">
        <ele>285.24363074319</ele>
        <time>2016-01-23T14:52:16Z</time>
      </trkpt>
      <trkpt lat="43.82761" lon="3.72134">
        <ele>282.75786260875</ele>
        <time>2016-01-23T14:54:03Z</time>
      </trkpt>
      <trkpt lat="43.8275" lon="3.72153">
        <ele>279.88139795354</ele>
        <time>2016-01-23T14:56:00Z</time>
      </trkpt>
      <trkpt lat="43.82701" lon="3.72184">
        <ele>277.97120242007</ele>
        <time>2016-01-23T15:00:03Z</time>
      </trkpt>
      <trkpt lat="43.8269" lon="3.72192">
        <ele>275.9902781934</ele>
        <time>2016-01-23T15:00:26Z</time>
      </trkpt>
      <trkpt lat="43.82686" lon="3.72204">
        <ele>273.92890373654</ele>
        <time>2016-01-23T15:05:01Z</time>
      </trkpt>
      <trkpt lat="43.82676" lon="3.72204">
        <ele>271.21600394072</ele>
        <time>2016-01-23T15:07:45Z</time>
      </trkpt>
      <trkpt lat="43.82676" lon="3.72204">
        <ele>271.21600394072</ele>
        <time>2016-01-23T15:08:05Z</time>
      </trkpt>
      <trkpt lat="43.82685" lon="3.72216">
        <ele>268.30395419578</ele>
        <time>2016-01-23T15:09:04Z</time>
      </trkpt>
      <trkpt lat="43.82702" lon="3.72197">
        <ele>265.52568356023</ele>
        <time>2016-01-23T15:10:33Z</time>
      </trkpt>
      <trkpt lat="43.82713" lon="3.72194">
        <ele>263.46277238585</ele>
        <time>2016-01-23T15:10:58Z</time>
      </trkpt>
      <trkpt lat="43.82724" lon="3.72197">
        <ele>261.68618124662</ele>
        <time>2016-01-23T15:11:16Z</time>
      </trkpt>
      <trkpt lat="43.82764" lon="3.72202">
        <ele>260.57542682316</ele>
        <time>2016-01-23T15:12:39Z</time>
      </trkpt>
      <trkpt lat="43.82767" lon="3.72203">
        <ele>260.57542682316</ele>
        <time>2016-01-23T15:12:43Z</time>
      </trkpt>
      <trkpt lat="43.8277" lon="3.72204">
        <ele>260.57542682316</ele>
        <time>2016-01-23T15:12:48Z</time>
      </trkpt>
      <trkpt lat="43.82772" lon="3.72203">
        <ele>260.57542682316</ele>
        <time>2016-01-23T15:12:53Z</time>
      </trkpt>
      <trkpt lat="43.82783" lon="3.72229">
        <ele>259.70171377156</ele>
        <time>2016-01-23T15:13:28Z</time>
      </trkpt>
      <trkpt lat="43.82803" lon="3.72239">
        <ele>258.86846978363</ele>
        <time>2016-01-23T15:13:56Z</time>
      </trkpt>
      <trkpt lat="43.82804" lon="3.72238">
        <ele>258.86846978363</ele>
        <time>2016-01-23T15:13:56Z</time>
      </trkpt>
      <trkpt lat="43.82804" lon="3.72239">
        <ele>258.86846978363</ele>
        <time>2016-01-23T15:14:00Z</time>
      </trkpt>
      <trkpt lat="43.8281" lon="3.7224">
        <ele>258.86846978363</ele>
        <time>2016-01-23T15:14:10Z</time>
      </trkpt>
      <trkpt lat="43.82825" lon="3.72239">
        <ele>258.12366206624</ele>
        <time>2016-01-23T15:14:35Z</time>
      </trkpt>
      <trkpt lat="43.82885" lon="3.72289">
        <ele>258.8513619112</ele>
        <time>2016-01-23T15:16:45Z</time>
      </trkpt>
      <trkpt lat="43.8289" lon="3.72296">
        <ele>258.8513619112</ele>
        <time>2016-01-23T15:17:03Z</time>
      </trkpt>
      <trkpt lat="43.82916" lon="3.72315">
        <ele>259.7354879704</ele>
        <time>2016-01-23T15:17:38Z</time>
      </trkpt>
      <trkpt lat="43.82915" lon="3.72319">
        <ele>259.7354879704</ele>
        <time>2016-01-23T15:17:43Z</time>
      </trkpt>
      <trkpt lat="43.82915" lon="3.7232">
        <ele>259.7354879704</ele>
        <time>2016-01-23T15:18:00Z</time>
      </trkpt>
      <trkpt lat="43.82929" lon="3.72373">
        <ele>261.35725574869</ele>
        <time>2016-01-23T15:19:00Z</time>
      </trkpt>
      <trkpt lat="43.82929" lon="3.72374">
        <ele>261.35725574869</ele>
        <time>2016-01-23T15:19:03Z</time>
      </trkpt>
      <trkpt lat="43.82933" lon="3.72397">
        <ele>263.14314703225</ele>
        <time>2016-01-23T15:19:31Z</time>
      </trkpt>
      <trkpt lat="43.82935" lon="3.72402">
        <ele>263.14314703225</ele>
        <time>2016-01-23T15:19:31Z</time>
      </trkpt>
      <trkpt lat="43.82935" lon="3.72445">
        <ele>265.19511368574</ele>
        <time>2016-01-23T15:20:02Z</time>
      </trkpt>
      <trkpt lat="43.82935" lon="3.72448">
        <ele>265.19511368574</ele>
        <time>2016-01-23T15:20:03Z</time>
      </trkpt>
      <trkpt lat="43.82934" lon="3.72454">
        <ele>265.19511368574</ele>
        <time>2016-01-23T15:20:08Z</time>
      </trkpt>
      <trkpt lat="43.82935" lon="3.72467">
        <ele>267.27515242204</ele>
        <time>2016-01-23T15:20:18Z</time>
      </trkpt>
      <trkpt lat="43.82935" lon="3.72503">
        <ele>269.47947185669</ele>
        <time>2016-01-23T15:20:44Z</time>
      </trkpt>
      <trkpt lat="43.82933" lon="3.72523">
        <ele>271.66607506749</ele>
        <time>2016-01-23T15:20:57Z</time>
      </trkpt>
      <trkpt lat="43.82931" lon="3.72541">
        <ele>273.80413718577</ele>
        <time>2016-01-23T15:21:09Z</time>
      </trkpt>
      <trkpt lat="43.82927" lon="3.72568">
        <ele>275.96594923587</ele>
        <time>2016-01-23T15:21:34Z</time>
      </trkpt>
      <trkpt lat="43.82924" lon="3.72578">
        <ele>275.96594923587</ele>
        <time>2016-01-23T15:21:34Z</time>
      </trkpt>
      <trkpt lat="43.82918" lon="3.72588">
        <ele>278.00211844707</ele>
        <time>2016-01-23T15:21:51Z</time>
      </trkpt>
      <trkpt lat="43.82825" lon="3.72766">
        <ele>278.9386131532</ele>
        <time>2016-01-23T15:24:10Z</time>
      </trkpt>
      <trkpt lat="43.82825" lon="3.72813">
        <ele>279.18734413583</ele>
        <time>2016-01-23T15:24:59Z</time>
      </trkpt>
      <trkpt lat="43.82838" lon="3.72865">
        <ele>278.8003409707</ele>
        <time>2016-01-23T15:25:24Z</time>
      </trkpt>
      <trkpt lat="43.82845" lon="3.72874">
        <ele>278.25983626162</ele>
        <time>2016-01-23T15:25:33Z</time>
      </trkpt>
      <trkpt lat="43.82847" lon="3.7288">
        <ele>278.25983626162</ele>
        <time>2016-01-23T15:25:42Z</time>
      </trkpt>
      <trkpt lat="43.82855" lon="3.72891">
        <ele>277.59505419136</ele>
        <time>2016-01-23T15:25:53Z</time>
      </trkpt>
      <trkpt lat="43.82861" lon="3.72896">
        <ele>277.59505419136</ele>
        <time>2016-01-23T15:25:58Z</time>
      </trkpt>
      <trkpt lat="43.82882" lon="3.72909">
        <ele>276.66039210257</ele>
        <time>2016-01-23T15:26:22Z</time>
      </trkpt>
      <trkpt lat="43.82882" lon="3.7291">
        <ele>276.66039210257</ele>
        <time>2016-01-23T15:26:24Z</time>
      </trkpt>
      <trkpt lat="43.82885" lon="3.72911">
        <ele>276.66039210257</ele>
        <time>2016-01-23T15:26:28Z</time>
      </trkpt>
      <trkpt lat="43.82889" lon="3.72913">
        <ele>276.66039210257</ele>
        <time>2016-01-23T15:26:33Z</time>
      </trkpt>
      <trkpt lat="43.82894" lon="3.72915">
        <ele>275.60982275379</ele>
        <time>2016-01-23T15:26:38Z</time>
      </trkpt>
      <trkpt lat="43.82905" lon="3.72919">
        <ele>274.48535034328</ele>
        <time>2016-01-23T15:27:00Z</time>
      </trkpt>
      <trkpt lat="43.82911" lon="3.72923">
        <ele>274.48535034328</ele>
        <time>2016-01-23T15:27:00Z</time>
      </trkpt>
      <trkpt lat="43.82916" lon="3.72954">
        <ele>273.38363456307</ele>
        <time>2016-01-23T15:27:34Z</time>
      </trkpt>
      <trkpt lat="43.8291" lon="3.72963">
        <ele>273.38363456307</ele>
        <time>2016-01-23T15:27:50Z</time>
      </trkpt>
      <trkpt lat="43.82909" lon="3.72972">
        <ele>272.39405470648</ele>
        <time>2016-01-23T15:28:00Z</time>
      </trkpt>
      <trkpt lat="43.82905" lon="3.72973">
        <ele>272.39405470648</ele>
        <time>2016-01-23T15:28:06Z</time>
      </trkpt>
      <trkpt lat="43.82905" lon="3.72974">
        <ele>272.39405470648</ele>
        <time>2016-01-23T15:28:06Z</time>
      </trkpt>
      <trkpt lat="43.82861" lon="3.72973">
        <ele>270.96489919145</ele>
        <time>2016-01-23T15:29:23Z</time>
      </trkpt>
      <trkpt lat="43.82827" lon="3.72987">
        <ele>269.19135781064</ele>
        <time>2016-01-23T15:30:11Z</time>
      </trkpt>
      <trkpt lat="43.8281" lon="3.72985">
        <ele>267.33539410772</ele>
        <time>2016-01-23T15:30:31Z</time>
      </trkpt>
      <trkpt lat="43.82794" lon="3.72985">
        <ele>265.43806351652</ele>
        <time>2016-01-23T15:30:46Z</time>
      </trkpt>
      <trkpt lat="43.82786" lon="3.72983">
        <ele>265.43806351652</ele>
        <time>2016-01-23T15:30:48Z</time>
      </trkpt>
      <trkpt lat="43.82774" lon="3.72985">
        <ele>263.39326277397</ele>
        <time>2016-01-23T15:31:05Z</time>
      </trkpt>
      <trkpt lat="43.8276" lon="3.72985">
        <ele>261.34793036609</ele>
        <time>2016-01-23T15:31:25Z</time>
      </trkpt>
      <trkpt lat="43.82759" lon="3.72985">
        <ele>261.34793036609</ele>
        <time>2016-01-23T15:31:25Z</time>
      </trkpt>
      <trkpt lat="43.82753" lon="3.72968">
        <ele>259.19306086819</ele>
        <time>2016-01-23T15:31:48Z</time>
      </trkpt>
      <trkpt lat="43.82746" lon="3.72956">
        <ele>257.18807273817</ele>
        <time>2016-01-23T15:32:01Z</time>
      </trkpt>
      <trkpt lat="43.82746" lon="3.72954">
        <ele>257.18807273817</ele>
        <time>2016-01-23T15:32:03Z</time>
      </trkpt>
      <trkpt lat="43.82744" lon="3.72943">
        <ele>255.29892182271</ele>
        <time>2016-01-23T15:32:26Z</time>
      </trkpt>
      <trkpt lat="43.82724" lon="3.72916">
        <ele>253.4215058763</ele>
        <time>2016-01-23T15:33:05Z</time>
      </trkpt>
      <trkpt lat="43.82711" lon="3.72879">
        <ele>251.66091150045</ele>
        <time>2016-01-23T15:34:03Z</time>
      </trkpt>
      <trkpt lat="43.82699" lon="3.72869">
        <ele>249.91223984129</ele>
        <time>2016-01-23T15:34:18Z</time>
      </trkpt>
      <trkpt lat="43.82697" lon="3.72867">
        <ele>249.91223984129</ele>
        <time>2016-01-23T15:34:23Z</time>
      </trkpt>
      <trkpt lat="43.82671" lon="3.72844">
        <ele>247.89073665668</ele>
        <time>2016-01-23T15:35:07Z</time>
      </trkpt>
      <trkpt lat="43.82655" lon="3.72822">
        <ele>245.52049142115</ele>
        <time>2016-01-23T15:35:30Z</time>
      </trkpt>
      <trkpt lat="43.82649" lon="3.72815">
        <ele>245.52049142115</ele>
        <time>2016-01-23T15:35:33Z</time>
      </trkpt>
      <trkpt lat="43.82636" lon="3.728">
        <ele>243.02018528512</ele>
        <time>2016-01-23T15:36:01Z</time>
      </trkpt>
      <trkpt lat="43.82634" lon="3.72798">
        <ele>243.02018528512</ele>
        <time>2016-01-23T15:36:07Z</time>
      </trkpt>
      <trkpt lat="43.82626" lon="3.72785">
        <ele>240.52055712933</ele>
        <time>2016-01-23T15:36:23Z</time>
      </trkpt>
      <trkpt lat="43.82621" lon="3.72776">
        <ele>240.52055712933</ele>
        <time>2016-01-23T15:36:38Z</time>
      </trkpt>
      <trkpt lat="43.82558" lon="3.72721">
        <ele>236.0097011699</ele>
        <time>2016-01-23T15:38:14Z</time>
      </trkpt>
      <trkpt lat="43.82555" lon="3.72721">
        <ele>236.0097011699</ele>
        <time>2016-01-23T15:38:17Z</time>
      </trkpt>
      <trkpt lat="43.82545" lon="3.72726">
        <ele>231.66405806279</ele>
        <time>2016-01-23T15:38:23Z</time>
      </trkpt>
      <trkpt lat="43.82542" lon="3.72723">
        <ele>231.66405806279</ele>
        <time>2016-01-23T15:38:28Z</time>
      </trkpt>
      <trkpt lat="43.82541" lon="3.72723">
        <ele>231.66405806279</ele>
        <time>2016-01-23T15:38:33Z</time>
      </trkpt>
      <trkpt lat="43.82537" lon="3.7273">
        <ele>227.22255553618</ele>
        <time>2016-01-23T15:38:48Z</time>
      </trkpt>
      <trkpt lat="43.82491" lon="3.7271">
        <ele>223.0053758686</ele>
        <time>2016-01-23T15:40:25Z</time>
      </trkpt>
      <trkpt lat="43.82479" lon="3.72706">
        <ele>219.16420123819</ele>
        <time>2016-01-23T15:40:58Z</time>
      </trkpt>
      <trkpt lat="43.82443" lon="3.72686">
        <ele>213.99364166304</ele>
        <time>2016-01-23T15:42:08Z</time>
      </trkpt>
      <trkpt lat="43.82416" lon="3.72689">
        <ele>209.21719622007</ele>
        <time>2016-01-23T15:42:47Z</time>
      </trkpt>
      <trkpt lat="43.82352" lon="3.72792">
        <ele>204.12459852404</ele>
        <time>2016-01-23T15:46:58Z</time>
      </trkpt>
      <trkpt lat="43.82354" lon="3.7282">
        <ele>199.60035022152</ele>
        <time>2016-01-23T15:47:33Z</time>
      </trkpt>
      <trkpt lat="43.82369" lon="3.72868">
        <ele>195.68389084264</ele>
        <time>2016-01-23T15:48:08Z</time>
      </trkpt>
      <trkpt lat="43.82322" lon="3.72817">
        <ele>192.26564998153</ele>
        <time>2016-01-23T15:49:03Z</time>
      </trkpt>
      <trkpt lat="43.82321" lon="3.72817">
        <ele>192.26564998153</ele>
        <time>2016-01-23T15:49:08Z</time>
      </trkpt>
      <trkpt lat="43.82281" lon="3.72823">
        <ele>189.37211273643</ele>
        <time>2016-01-23T15:50:28Z</time>
      </trkpt>
      <trkpt lat="43.82279" lon="3.72821">
        <ele>189.37211273643</ele>
        <time>2016-01-23T15:50:43Z</time>
      </trkpt>
      <trkpt lat="43.82266" lon="3.72839">
        <ele>186.44961130884</ele>
        <time>2016-01-23T15:51:03Z</time>
      </trkpt>
      <trkpt lat="43.82262" lon="3.72838">
        <ele>186.44961130884</ele>
        <time>2016-01-23T15:51:08Z</time>
      </trkpt>
      <trkpt lat="43.82256" lon="3.72836">
        <ele>183.83520549563</ele>
        <time>2016-01-23T15:51:18Z</time>
      </trkpt>
      <trkpt lat="43.82252" lon="3.72838">
        <ele>183.83520549563</ele>
        <time>2016-01-23T15:51:27Z</time>
      </trkpt>
      <trkpt lat="43.82176" lon="3.72846">
        <ele>179.04429980436</ele>
        <time>2016-01-23T15:54:12Z</time>
      </trkpt>
      <trkpt lat="43.8214" lon="3.72836">
        <ele>174.34897752212</ele>
        <time>2016-01-23T15:54:32Z</time>
      </trkpt>
      <trkpt lat="43.82113" lon="3.72843">
        <ele>170.09572743739</ele>
        <time>2016-01-23T15:55:03Z</time>
      </trkpt>
      <trkpt lat="43.82111" lon="3.72848">
        <ele>170.09572743739</ele>
        <time>2016-01-23T15:55:18Z</time>
      </trkpt>
      <trkpt lat="43.82043" lon="3.72876">
        <ele>165.99881549587</ele>
        <time>2016-01-23T15:57:17Z</time>
      </trkpt>
      <trkpt lat="43.82032" lon="3.7289">
        <ele>161.90808526854</ele>
        <time>2016-01-23T15:57:48Z</time>
      </trkpt>
      <trkpt lat="43.82031" lon="3.72884">
        <ele>161.90808526854</ele>
        <time>2016-01-23T15:58:14Z</time>
      </trkpt>
      <trkpt lat="43.82008" lon="3.72921">
        <ele>156.93475365608</ele>
        <time>2016-01-23T15:59:18Z</time>
      </trkpt>
      <trkpt lat="43.81989" lon="3.72949">
        <ele>152.26068845482</ele>
        <time>2016-01-23T16:00:08Z</time>
      </trkpt>
      <trkpt lat="43.81977" lon="3.72968">
        <ele>147.16403878095</ele>
        <time>2016-01-23T16:00:48Z</time>
      </trkpt>
      <trkpt lat="43.81974" lon="3.72978">
        <ele>147.16403878095</ele>
        <time>2016-01-23T16:01:20Z</time>
      </trkpt>
      <trkpt lat="43.81983" lon="3.72989">
        <ele>142.80711958597</ele>
        <time>2016-01-23T16:01:50Z</time>
      </trkpt>
      <trkpt lat="43.81976" lon="3.73001">
        <ele>139.11164248197</ele>
        <time>2016-01-23T16:02:04Z</time>
      </trkpt>
      <trkpt lat="43.81979" lon="3.73024">
        <ele>136.1470760187</ele>
        <time>2016-01-23T16:02:54Z</time>
      </trkpt>
      <trkpt lat="43.81975" lon="3.73021">
        <ele>136.1470760187</ele>
        <time>2016-01-23T16:03:18Z</time>
      </trkpt>
      <trkpt lat="43.81981" lon="3.7305">
        <ele>134.91222078118</ele>
        <time>2016-01-23T16:04:18Z</time>
      </trkpt>
      <trkpt lat="43.81969" lon="3.73056">
        <ele>134.61251403234</ele>
        <time>2016-01-23T16:04:48Z</time>
      </trkpt>
      <trkpt lat="43.8198" lon="3.73084">
        <ele>136.28151826824</ele>
        <time>2016-01-23T16:06:09Z</time>
      </trkpt>
      <trkpt lat="43.81977" lon="3.73085">
        <ele>136.28151826824</ele>
        <time>2016-01-23T16:06:29Z</time>
      </trkpt>
      <trkpt lat="43.81967" lon="3.73113">
        <ele>139.77595694242</ele>
        <time>2016-01-23T16:07:14Z</time>
      </trkpt>
      <trkpt lat="43.81968" lon="3.73117">
        <ele>139.77595694242</ele>
        <time>2016-01-23T16:07:18Z</time>
      </trkpt>
      <trkpt lat="43.81974" lon="3.73133">
        <ele>143.53115954024</ele>
        <time>2016-01-23T16:07:48Z</time>
      </trkpt>
      <trkpt lat="43.81971" lon="3.73134">
        <ele>143.53115954024</ele>
        <time>2016-01-23T16:08:19Z</time>
      </trkpt>
      <trkpt lat="43.81976" lon="3.73171">
        <ele>149.12295873008</ele>
        <time>2016-01-23T16:08:43Z</time>
      </trkpt>
      <trkpt lat="43.81975" lon="3.73178">
        <ele>149.12295873008</ele>
        <time>2016-01-23T16:08:48Z</time>
      </trkpt>
      <trkpt lat="43.81974" lon="3.73184">
        <ele>154.77820864431</ele>
        <time>2016-01-23T16:08:58Z</time>
      </trkpt>
      <trkpt lat="43.81973" lon="3.73187">
        <ele>154.77820864431</ele>
        <time>2016-01-23T16:09:04Z</time>
      </trkpt>
      <trkpt lat="43.81977" lon="3.73203">
        <ele>160.42473998161</ele>
        <time>2016-01-23T16:09:38Z</time>
      </trkpt>
      <trkpt lat="43.81981" lon="3.73206">
        <ele>160.42473998161</ele>
        <time>2016-01-23T16:09:39Z</time>
      </trkpt>
      <trkpt lat="43.82015" lon="3.73274">
        <ele>167.71078771185</ele>
        <time>2016-01-23T16:11:16Z</time>
      </trkpt>
      <trkpt lat="43.82014" lon="3.73277">
        <ele>167.71078771185</ele>
        <time>2016-01-23T16:11:18Z</time>
      </trkpt>
      <trkpt lat="43.82049" lon="3.7328">
        <ele>175.14720746229</ele>
        <time>2016-01-23T16:12:32Z</time>
      </trkpt>
      <trkpt lat="43.82055" lon="3.73297">
        <ele>182.3340661624</ele>
        <time>2016-01-23T16:12:44Z</time>
      </trkpt>
      <trkpt lat="43.82042" lon="3.7333">
        <ele>189.78093509041</ele>
        <time>2016-01-23T16:13:35Z</time>
      </trkpt>
      <trkpt lat="43.82031" lon="3.73352">
        <ele>197.03731716516</ele>
        <time>2016-01-23T16:13:59Z</time>
      </trkpt>
      <trkpt lat="43.82027" lon="3.73379">
        <ele>204.01825581119</ele>
        <time>2016-01-23T16:14:23Z</time>
      </trkpt>
      <trkpt lat="43.82026" lon="3.73381">
        <ele>204.01825581119</ele>
        <time>2016-01-23T16:14:44Z</time>
      </trkpt>
      <trkpt lat="43.8201" lon="3.73395">
        <ele>210.57425485118</ele>
        <time>2016-01-23T16:15:13Z</time>
      </trkpt>
      <trkpt lat="43.82007" lon="3.73407">
        <ele>216.56853262382</ele>
        <time>2016-01-23T16:15:22Z</time>
      </trkpt>
      <trkpt lat="43.81999" lon="3.73429">
        <ele>222.10707990479</ele>
        <time>2016-01-23T16:15:55Z</time>
      </trkpt>
      <trkpt lat="43.81982" lon="3.73469">
        <ele>227.10262863682</ele>
        <time>2016-01-23T16:17:03Z</time>
      </trkpt>
      <trkpt lat="43.81947" lon="3.73534">
        <ele>231.21705181217</ele>
        <time>2016-01-23T16:18:03Z</time>
      </trkpt>
      <trkpt lat="43.81947" lon="3.73588">
        <ele>233.76545541277</ele>
        <time>2016-01-23T16:19:09Z</time>
      </trkpt>
      <trkpt lat="43.81949" lon="3.73591">
        <ele>233.76545541277</ele>
        <time>2016-01-23T16:19:09Z</time>
      </trkpt>
      <trkpt lat="43.81949" lon="3.73594">
        <ele>233.76545541277</ele>
        <time>2016-01-23T16:19:13Z</time>
      </trkpt>
      <trkpt lat="43.81954" lon="3.73631">
        <ele>235.71789156238</ele>
        <time>2016-01-23T16:20:00Z</time>
      </trkpt>
      <trkpt lat="43.81888" lon="3.73822">
        <ele>234.63203510731</ele>
        <time>2016-01-23T16:23:11Z</time>
      </trkpt>
      <trkpt lat="43.81886" lon="3.73825">
        <ele>234.63203510731</ele>
        <time>2016-01-23T16:23:13Z</time>
      </trkpt>
      <trkpt lat="43.81847" lon="3.73869">
        <ele>232.49092400629</ele>
        <time>2016-01-23T16:23:59Z</time>
      </trkpt>
      <trkpt lat="43.81837" lon="3.73888">
        <ele>229.98251342965</ele>
        <time>2016-01-23T16:24:13Z</time>
      </trkpt>
      <trkpt lat="43.81777" lon="3.73998">
        <ele>225.05083947612</ele>
        <time>2016-01-23T16:26:16Z</time>
      </trkpt>
      <trkpt lat="43.81748" lon="3.74006">
        <ele>219.96298417577</ele>
        <time>2016-01-23T16:26:42Z</time>
      </trkpt>
      <trkpt lat="43.81727" lon="3.7403">
        <ele>214.90359132438</ele>
        <time>2016-01-23T16:27:07Z</time>
      </trkpt>
      <trkpt lat="43.81716" lon="3.7404">
        <ele>210.08716907584</ele>
        <time>2016-01-23T16:27:09Z</time>
      </trkpt>
      <trkpt lat="43.81594" lon="3.74063">
        <ele>204.83291713963</ele>
        <time>2016-01-23T16:29:12Z</time>
      </trkpt>
      <trkpt lat="43.81555" lon="3.74073">
        <ele>199.76518942637</ele>
        <time>2016-01-23T16:29:49Z</time>
      </trkpt>
      <trkpt lat="43.81543" lon="3.74077">
        <ele>195.02970942337</ele>
        <time>2016-01-23T16:30:23Z</time>
      </trkpt>
      <trkpt lat="43.81468" lon="3.74079">
        <ele>190.89030360246</ele>
        <time>2016-01-23T16:31:09Z</time>
      </trkpt>
      <trkpt lat="43.81416" lon="3.74066">
        <ele>187.05652849299</ele>
        <time>2016-01-23T16:32:05Z</time>
      </trkpt>
      <trkpt lat="43.81394" lon="3.74077">
        <ele>183.6618855301</ele>
        <time>2016-01-23T16:32:42Z</time>
      </trkpt>
      <trkpt lat="43.81391" lon="3.74081">
        <ele>183.6618855301</ele>
        <time>2016-01-23T16:32:42Z</time>
      </trkpt>
      <trkpt lat="43.8138" lon="3.74094">
        <ele>180.81434946678</ele>
        <time>2016-01-23T16:33:03Z</time>
      </trkpt>
      <trkpt lat="43.81373" lon="3.741">
        <ele>180.81434946678</ele>
        <time>2016-01-23T16:33:22Z</time>
      </trkpt>
      <trkpt lat="43.81368" lon="3.741">
        <ele>178.2232258351</ele>
        <time>2016-01-23T16:33:25Z</time>
      </trkpt>
      <trkpt lat="43.81343" lon="3.741">
        <ele>175.97861036116</ele>
        <time>2016-01-23T16:33:59Z</time>
      </trkpt>
      <trkpt lat="43.81329" lon="3.74116">
        <ele>174.26374886282</ele>
        <time>2016-01-23T16:34:12Z</time>
      </trkpt>
      <trkpt lat="43.81328" lon="3.74118">
        <ele>174.26374886282</ele>
        <time>2016-01-23T16:34:20Z</time>
      </trkpt>
      <trkpt lat="43.81312" lon="3.74129">
        <ele>172.88651486983</ele>
        <time>2016-01-23T16:34:37Z</time>
      </trkpt>
      <trkpt lat="43.81302" lon="3.74136">
        <ele>171.68220649631</ele>
        <time>2016-01-23T16:34:56Z</time>
      </trkpt>
      <trkpt lat="43.81291" lon="3.74147">
        <ele>170.65610295621</ele>
        <time>2016-01-23T16:35:03Z</time>
      </trkpt>
      <trkpt lat="43.81288" lon="3.74149">
        <ele>170.65610295621</ele>
        <time>2016-01-23T16:35:09Z</time>
      </trkpt>
      <trkpt lat="43.81229" lon="3.74182">
        <ele>169.38010734628</ele>
        <time>2016-01-23T16:36:25Z</time>
      </trkpt>
      <trkpt lat="43.81193" lon="3.74192">
        <ele>168.07779599271</ele>
        <time>2016-01-23T16:37:33Z</time>
      </trkpt>
    </trkseg>
  </trk>
</gpx>